<?xml version="1.0" encoding="UTF-8" standalone="no" ?>
<gpx xmlns="http://www.topografix.com/GPX/1/1" xmlns:xsi="http://www.w3.org/2001/XMLSchema-instance" xsi:schemaLocation="http://www.topografix.com/GPX/1/1 http://www.topografix.com/GPX/1/1/gpx.xsd" version="1.1" creator="VisuGPX - https://www.visugpx.com">
  <metadata>
    <name>Clermont-Ferrand - Massat - Pau par François</name>
    <desc><![CDATA[Trajet effectué par François sur la "Diagonale du vide" en aout 2020]]></desc>
  </metadata>
  <trk>
    <name><![CDATA[route112]]></name>
    <trkseg>
      <trkpt lat="43.83805" lon="2.96934">
        <ele>526.2</ele>
        <time>2020-08-25T05:06:00Z</time>
      </trkpt>
      <trkpt lat="43.83735" lon="2.96837">
        <ele>532.5</ele>
        <time>2020-08-25T05:08:38Z</time>
      </trkpt>
      <trkpt lat="43.83644" lon="2.9672">
        <ele>527.4</ele>
        <time>2020-08-25T05:08:53Z</time>
      </trkpt>
      <trkpt lat="43.83571" lon="2.9661">
        <ele>528.2</ele>
        <time>2020-08-25T05:09:08Z</time>
      </trkpt>
      <trkpt lat="43.83503" lon="2.96508">
        <ele>530.4</ele>
        <time>2020-08-25T05:09:23Z</time>
      </trkpt>
      <trkpt lat="43.83481" lon="2.96363">
        <ele>523.1</ele>
        <time>2020-08-25T05:09:43Z</time>
      </trkpt>
      <trkpt lat="43.83492" lon="2.96229">
        <ele>521.4</ele>
        <time>2020-08-25T05:10:19Z</time>
      </trkpt>
      <trkpt lat="43.83458" lon="2.96095">
        <ele>520.2</ele>
        <time>2020-08-25T05:10:54Z</time>
      </trkpt>
      <trkpt lat="43.83415" lon="2.95971">
        <ele>518.7</ele>
        <time>2020-08-25T05:11:09Z</time>
      </trkpt>
      <trkpt lat="43.83354" lon="2.9583">
        <ele>515.3</ele>
        <time>2020-08-25T05:11:24Z</time>
      </trkpt>
      <trkpt lat="43.83297" lon="2.95705">
        <ele>512.8</ele>
        <time>2020-08-25T05:11:44Z</time>
      </trkpt>
      <trkpt lat="43.83218" lon="2.95612">
        <ele>513</ele>
        <time>2020-08-25T05:12:04Z</time>
      </trkpt>
      <trkpt lat="43.83124" lon="2.95593">
        <ele>508.7</ele>
        <time>2020-08-25T05:12:24Z</time>
      </trkpt>
      <trkpt lat="43.83027" lon="2.95536">
        <ele>507</ele>
        <time>2020-08-25T05:12:49Z</time>
      </trkpt>
      <trkpt lat="43.82931" lon="2.95495">
        <ele>506.9</ele>
        <time>2020-08-25T05:13:14Z</time>
      </trkpt>
      <trkpt lat="43.82835" lon="2.95452">
        <ele>505.4</ele>
        <time>2020-08-25T05:13:39Z</time>
      </trkpt>
      <trkpt lat="43.82736" lon="2.95411">
        <ele>504.5</ele>
        <time>2020-08-25T05:14:04Z</time>
      </trkpt>
      <trkpt lat="43.82647" lon="2.95374">
        <ele>503.1</ele>
        <time>2020-08-25T05:14:19Z</time>
      </trkpt>
      <trkpt lat="43.82587" lon="2.95274">
        <ele>499.8</ele>
        <time>2020-08-25T05:14:34Z</time>
      </trkpt>
      <trkpt lat="43.82646" lon="2.95174">
        <ele>499.1</ele>
        <time>2020-08-25T05:15:09Z</time>
      </trkpt>
      <trkpt lat="43.82711" lon="2.95074">
        <ele>498.4</ele>
        <time>2020-08-25T05:16:06Z</time>
      </trkpt>
      <trkpt lat="43.82777" lon="2.94984">
        <ele>494.6</ele>
        <time>2020-08-25T05:16:54Z</time>
      </trkpt>
      <trkpt lat="43.82817" lon="2.94867">
        <ele>496.1</ele>
        <time>2020-08-25T05:17:47Z</time>
      </trkpt>
      <trkpt lat="43.82849" lon="2.94739">
        <ele>498.3</ele>
        <time>2020-08-25T05:18:38Z</time>
      </trkpt>
      <trkpt lat="43.82912" lon="2.94651">
        <ele>498.5</ele>
        <time>2020-08-25T05:19:25Z</time>
      </trkpt>
      <trkpt lat="43.82938" lon="2.94528">
        <ele>499.7</ele>
        <time>2020-08-25T05:20:15Z</time>
      </trkpt>
      <trkpt lat="43.83006" lon="2.9443">
        <ele>500.8</ele>
        <time>2020-08-25T05:20:55Z</time>
      </trkpt>
      <trkpt lat="43.83067" lon="2.94326">
        <ele>501.1</ele>
        <time>2020-08-25T05:21:25Z</time>
      </trkpt>
      <trkpt lat="43.83149" lon="2.94235">
        <ele>501.2</ele>
        <time>2020-08-25T05:21:55Z</time>
      </trkpt>
      <trkpt lat="43.83246" lon="2.94225">
        <ele>501.6</ele>
        <time>2020-08-25T05:22:25Z</time>
      </trkpt>
      <trkpt lat="43.83342" lon="2.94228">
        <ele>502.4</ele>
        <time>2020-08-25T05:23:05Z</time>
      </trkpt>
      <trkpt lat="43.83433" lon="2.94235">
        <ele>504.1</ele>
        <time>2020-08-25T05:23:52Z</time>
      </trkpt>
      <trkpt lat="43.83528" lon="2.94194">
        <ele>505.9</ele>
        <time>2020-08-25T05:24:37Z</time>
      </trkpt>
      <trkpt lat="43.83619" lon="2.94166">
        <ele>507.8</ele>
        <time>2020-08-25T05:25:22Z</time>
      </trkpt>
      <trkpt lat="43.8371" lon="2.94174">
        <ele>509.6</ele>
        <time>2020-08-25T05:26:07Z</time>
      </trkpt>
      <trkpt lat="43.83791" lon="2.94233">
        <ele>511.2</ele>
        <time>2020-08-25T05:26:52Z</time>
      </trkpt>
      <trkpt lat="43.83879" lon="2.94284">
        <ele>513</ele>
        <time>2020-08-25T05:27:42Z</time>
      </trkpt>
      <trkpt lat="43.83966" lon="2.94252">
        <ele>514.3</ele>
        <time>2020-08-25T05:28:17Z</time>
      </trkpt>
      <trkpt lat="43.83983" lon="2.94118">
        <ele>516.5</ele>
        <time>2020-08-25T05:28:37Z</time>
      </trkpt>
      <trkpt lat="43.83995" lon="2.93946">
        <ele>517.1</ele>
        <time>2020-08-25T05:28:57Z</time>
      </trkpt>
      <trkpt lat="43.84023" lon="2.9382">
        <ele>519.2</ele>
        <time>2020-08-25T05:29:12Z</time>
      </trkpt>
      <trkpt lat="43.83913" lon="2.93808">
        <ele>520.4</ele>
        <time>2020-08-25T05:29:27Z</time>
      </trkpt>
      <trkpt lat="43.83898" lon="2.93639">
        <ele>523.1</ele>
        <time>2020-08-25T05:29:42Z</time>
      </trkpt>
      <trkpt lat="43.83833" lon="2.93485">
        <ele>524.2</ele>
        <time>2020-08-25T05:29:57Z</time>
      </trkpt>
      <trkpt lat="43.8384" lon="2.93321">
        <ele>523.4</ele>
        <time>2020-08-25T05:30:12Z</time>
      </trkpt>
      <trkpt lat="43.83821" lon="2.93161">
        <ele>519.9</ele>
        <time>2020-08-25T05:30:32Z</time>
      </trkpt>
      <trkpt lat="43.83808" lon="2.92996">
        <ele>515.5</ele>
        <time>2020-08-25T05:30:47Z</time>
      </trkpt>
      <trkpt lat="43.83816" lon="2.92825">
        <ele>511.5</ele>
        <time>2020-08-25T05:31:02Z</time>
      </trkpt>
      <trkpt lat="43.83883" lon="2.92734">
        <ele>506.2</ele>
        <time>2020-08-25T05:31:17Z</time>
      </trkpt>
      <trkpt lat="43.838" lon="2.92644">
        <ele>501</ele>
        <time>2020-08-25T05:31:32Z</time>
      </trkpt>
      <trkpt lat="43.838" lon="2.92471">
        <ele>495.2</ele>
        <time>2020-08-25T05:31:47Z</time>
      </trkpt>
      <trkpt lat="43.83835" lon="2.92317">
        <ele>490.7</ele>
        <time>2020-08-25T05:32:02Z</time>
      </trkpt>
      <trkpt lat="43.83857" lon="2.92197">
        <ele>486.6</ele>
        <time>2020-08-25T05:32:12Z</time>
      </trkpt>
      <trkpt lat="43.83848" lon="2.92032">
        <ele>481.1</ele>
        <time>2020-08-25T05:32:27Z</time>
      </trkpt>
      <trkpt lat="43.83757" lon="2.91928">
        <ele>478.1</ele>
        <time>2020-08-25T05:32:47Z</time>
      </trkpt>
      <trkpt lat="43.83715" lon="2.91811">
        <ele>472.4</ele>
        <time>2020-08-25T05:33:07Z</time>
      </trkpt>
      <trkpt lat="43.83656" lon="2.91689">
        <ele>467.6</ele>
        <time>2020-08-25T05:33:27Z</time>
      </trkpt>
      <trkpt lat="43.83607" lon="2.91569">
        <ele>466.3</ele>
        <time>2020-08-25T05:33:47Z</time>
      </trkpt>
      <trkpt lat="43.83555" lon="2.91435">
        <ele>464.2</ele>
        <time>2020-08-25T05:34:07Z</time>
      </trkpt>
      <trkpt lat="43.83503" lon="2.913">
        <ele>462.2</ele>
        <time>2020-08-25T05:34:27Z</time>
      </trkpt>
      <trkpt lat="43.83454" lon="2.91162">
        <ele>459.9</ele>
        <time>2020-08-25T05:34:47Z</time>
      </trkpt>
      <trkpt lat="43.83449" lon="2.91005">
        <ele>457.3</ele>
        <time>2020-08-25T05:35:07Z</time>
      </trkpt>
      <trkpt lat="43.83426" lon="2.90854">
        <ele>454.9</ele>
        <time>2020-08-25T05:35:27Z</time>
      </trkpt>
      <trkpt lat="43.83381" lon="2.9072">
        <ele>453</ele>
        <time>2020-08-25T05:35:47Z</time>
      </trkpt>
      <trkpt lat="43.83316" lon="2.90594">
        <ele>452.1</ele>
        <time>2020-08-25T05:36:07Z</time>
      </trkpt>
      <trkpt lat="43.83269" lon="2.90481">
        <ele>451.6</ele>
        <time>2020-08-25T05:36:27Z</time>
      </trkpt>
      <trkpt lat="43.83222" lon="2.90343">
        <ele>450.5</ele>
        <time>2020-08-25T05:36:47Z</time>
      </trkpt>
      <trkpt lat="43.83185" lon="2.90219">
        <ele>449.2</ele>
        <time>2020-08-25T05:37:07Z</time>
      </trkpt>
      <trkpt lat="43.83148" lon="2.90101">
        <ele>448.3</ele>
        <time>2020-08-25T05:37:27Z</time>
      </trkpt>
      <trkpt lat="43.83066" lon="2.90036">
        <ele>447.9</ele>
        <time>2020-08-25T05:37:47Z</time>
      </trkpt>
      <trkpt lat="43.83003" lon="2.89934">
        <ele>447.7</ele>
        <time>2020-08-25T05:38:12Z</time>
      </trkpt>
      <trkpt lat="43.82939" lon="2.89821">
        <ele>447.6</ele>
        <time>2020-08-25T05:38:42Z</time>
      </trkpt>
      <trkpt lat="43.82863" lon="2.89735">
        <ele>447.6</ele>
        <time>2020-08-25T05:39:12Z</time>
      </trkpt>
      <trkpt lat="43.82781" lon="2.89639">
        <ele>447.8</ele>
        <time>2020-08-25T05:39:42Z</time>
      </trkpt>
      <trkpt lat="43.82748" lon="2.89503">
        <ele>447.8</ele>
        <time>2020-08-25T05:40:12Z</time>
      </trkpt>
      <trkpt lat="43.82678" lon="2.89418">
        <ele>447.6</ele>
        <time>2020-08-25T05:40:37Z</time>
      </trkpt>
      <trkpt lat="43.82602" lon="2.8933">
        <ele>447.5</ele>
        <time>2020-08-25T05:41:02Z</time>
      </trkpt>
      <trkpt lat="43.82524" lon="2.89229">
        <ele>447.4</ele>
        <time>2020-08-25T05:41:32Z</time>
      </trkpt>
      <trkpt lat="43.82468" lon="2.89111">
        <ele>447.3</ele>
        <time>2020-08-25T05:42:02Z</time>
      </trkpt>
      <trkpt lat="43.82414" lon="2.89002">
        <ele>447.1</ele>
        <time>2020-08-25T05:42:32Z</time>
      </trkpt>
      <trkpt lat="43.8238" lon="2.88873">
        <ele>447.1</ele>
        <time>2020-08-25T05:43:07Z</time>
      </trkpt>
      <trkpt lat="43.82421" lon="2.88747">
        <ele>447.2</ele>
        <time>2020-08-25T05:43:37Z</time>
      </trkpt>
      <trkpt lat="43.8242" lon="2.88617">
        <ele>448.1</ele>
        <time>2020-08-25T05:44:02Z</time>
      </trkpt>
      <trkpt lat="43.82391" lon="2.8848">
        <ele>448.6</ele>
        <time>2020-08-25T05:44:27Z</time>
      </trkpt>
      <trkpt lat="43.82356" lon="2.88332">
        <ele>448.6</ele>
        <time>2020-08-25T05:44:52Z</time>
      </trkpt>
      <trkpt lat="43.82332" lon="2.88165">
        <ele>448.4</ele>
        <time>2020-08-25T05:45:12Z</time>
      </trkpt>
      <trkpt lat="43.82266" lon="2.88077">
        <ele>447.6</ele>
        <time>2020-08-25T05:45:27Z</time>
      </trkpt>
      <trkpt lat="43.8216" lon="2.8803">
        <ele>445.6</ele>
        <time>2020-08-25T05:45:42Z</time>
      </trkpt>
      <trkpt lat="43.82085" lon="2.87947">
        <ele>443.1</ele>
        <time>2020-08-25T05:46:02Z</time>
      </trkpt>
      <trkpt lat="43.81994" lon="2.87901">
        <ele>439.4</ele>
        <time>2020-08-25T05:47:08Z</time>
      </trkpt>
      <trkpt lat="43.81902" lon="2.87867">
        <ele>439.4</ele>
        <time>2020-08-25T05:47:43Z</time>
      </trkpt>
      <trkpt lat="43.81811" lon="2.87844">
        <ele>440.8</ele>
        <time>2020-08-25T05:48:28Z</time>
      </trkpt>
      <trkpt lat="43.81716" lon="2.87855">
        <ele>445.1</ele>
        <time>2020-08-25T05:49:30Z</time>
      </trkpt>
      <trkpt lat="43.81621" lon="2.87848">
        <ele>449.3</ele>
        <time>2020-08-25T05:50:34Z</time>
      </trkpt>
      <trkpt lat="43.81525" lon="2.87836">
        <ele>454</ele>
        <time>2020-08-25T05:51:41Z</time>
      </trkpt>
      <trkpt lat="43.81433" lon="2.8787">
        <ele>458.7</ele>
        <time>2020-08-25T05:52:43Z</time>
      </trkpt>
      <trkpt lat="43.8134" lon="2.87893">
        <ele>463.9</ele>
        <time>2020-08-25T05:53:47Z</time>
      </trkpt>
      <trkpt lat="43.81243" lon="2.87915">
        <ele>468.7</ele>
        <time>2020-08-25T05:54:53Z</time>
      </trkpt>
      <trkpt lat="43.81171" lon="2.87827">
        <ele>478.5</ele>
        <time>2020-08-25T05:59:48Z</time>
      </trkpt>
      <trkpt lat="43.81114" lon="2.87723">
        <ele>481.1</ele>
        <time>2020-08-25T06:00:56Z</time>
      </trkpt>
      <trkpt lat="43.81066" lon="2.87608">
        <ele>482.4</ele>
        <time>2020-08-25T06:02:05Z</time>
      </trkpt>
      <trkpt lat="43.80998" lon="2.87517">
        <ele>483.8</ele>
        <time>2020-08-25T06:03:09Z</time>
      </trkpt>
      <trkpt lat="43.8109" lon="2.87553">
        <ele>497.7</ele>
        <time>2020-08-25T06:06:00Z</time>
      </trkpt>
      <trkpt lat="43.81169" lon="2.87634">
        <ele>503.9</ele>
        <time>2020-08-25T06:07:06Z</time>
      </trkpt>
      <trkpt lat="43.81243" lon="2.87721">
        <ele>509.4</ele>
        <time>2020-08-25T06:08:10Z</time>
      </trkpt>
      <trkpt lat="43.81199" lon="2.87604">
        <ele>514.9</ele>
        <time>2020-08-25T06:09:32Z</time>
      </trkpt>
      <trkpt lat="43.81145" lon="2.87494">
        <ele>519.4</ele>
        <time>2020-08-25T06:10:40Z</time>
      </trkpt>
      <trkpt lat="43.81079" lon="2.87396">
        <ele>530.2</ele>
        <time>2020-08-25T06:11:46Z</time>
      </trkpt>
      <trkpt lat="43.81" lon="2.87324">
        <ele>541.6</ele>
        <time>2020-08-25T06:12:51Z</time>
      </trkpt>
      <trkpt lat="43.80923" lon="2.87253">
        <ele>554.8</ele>
        <time>2020-08-25T06:13:58Z</time>
      </trkpt>
      <trkpt lat="43.80847" lon="2.87174">
        <ele>564</ele>
        <time>2020-08-25T06:15:04Z</time>
      </trkpt>
      <trkpt lat="43.80771" lon="2.87088">
        <ele>572.1</ele>
        <time>2020-08-25T06:16:13Z</time>
      </trkpt>
      <trkpt lat="43.80687" lon="2.87015">
        <ele>578.3</ele>
        <time>2020-08-25T06:17:23Z</time>
      </trkpt>
      <trkpt lat="43.80785" lon="2.87015">
        <ele>586</ele>
        <time>2020-08-25T06:18:54Z</time>
      </trkpt>
      <trkpt lat="43.8088" lon="2.87044">
        <ele>592.1</ele>
        <time>2020-08-25T06:20:01Z</time>
      </trkpt>
      <trkpt lat="43.80972" lon="2.87081">
        <ele>598.4</ele>
        <time>2020-08-25T06:21:06Z</time>
      </trkpt>
      <trkpt lat="43.81065" lon="2.8711">
        <ele>607.5</ele>
        <time>2020-08-25T06:22:14Z</time>
      </trkpt>
      <trkpt lat="43.81156" lon="2.87137">
        <ele>614.7</ele>
        <time>2020-08-25T06:23:15Z</time>
      </trkpt>
      <trkpt lat="43.81107" lon="2.8702">
        <ele>627</ele>
        <time>2020-08-25T06:26:03Z</time>
      </trkpt>
      <trkpt lat="43.81028" lon="2.86947">
        <ele>639</ele>
        <time>2020-08-25T06:27:08Z</time>
      </trkpt>
      <trkpt lat="43.80962" lon="2.86851">
        <ele>648.5</ele>
        <time>2020-08-25T06:28:12Z</time>
      </trkpt>
      <trkpt lat="43.80913" lon="2.86732">
        <ele>655.7</ele>
        <time>2020-08-25T06:29:19Z</time>
      </trkpt>
      <trkpt lat="43.80859" lon="2.86621">
        <ele>661.7</ele>
        <time>2020-08-25T06:30:26Z</time>
      </trkpt>
      <trkpt lat="43.80787" lon="2.86527">
        <ele>668.4</ele>
        <time>2020-08-25T06:31:34Z</time>
      </trkpt>
      <trkpt lat="43.80691" lon="2.8649">
        <ele>675.6</ele>
        <time>2020-08-25T06:32:38Z</time>
      </trkpt>
      <trkpt lat="43.80595" lon="2.86467">
        <ele>683.7</ele>
        <time>2020-08-25T06:33:38Z</time>
      </trkpt>
      <trkpt lat="43.80504" lon="2.86425">
        <ele>690.8</ele>
        <time>2020-08-25T06:34:37Z</time>
      </trkpt>
      <trkpt lat="43.8041" lon="2.86451">
        <ele>698.9</ele>
        <time>2020-08-25T06:35:34Z</time>
      </trkpt>
      <trkpt lat="43.80335" lon="2.86519">
        <ele>706.8</ele>
        <time>2020-08-25T06:36:28Z</time>
      </trkpt>
      <trkpt lat="43.80278" lon="2.86628">
        <ele>714.7</ele>
        <time>2020-08-25T06:37:22Z</time>
      </trkpt>
      <trkpt lat="43.80223" lon="2.8674">
        <ele>725</ele>
        <time>2020-08-25T06:38:24Z</time>
      </trkpt>
      <trkpt lat="43.80147" lon="2.86824">
        <ele>731.7</ele>
        <time>2020-08-25T06:39:21Z</time>
      </trkpt>
      <trkpt lat="43.80094" lon="2.86924">
        <ele>737.8</ele>
        <time>2020-08-25T06:40:22Z</time>
      </trkpt>
      <trkpt lat="43.80025" lon="2.86823">
        <ele>751.9</ele>
        <time>2020-08-25T06:42:57Z</time>
      </trkpt>
      <trkpt lat="43.79966" lon="2.86725">
        <ele>751.9</ele>
        <time>2020-08-25T06:43:12Z</time>
      </trkpt>
      <trkpt lat="43.79921" lon="2.86613">
        <ele>750.4</ele>
        <time>2020-08-25T06:43:27Z</time>
      </trkpt>
      <trkpt lat="43.79936" lon="2.86468">
        <ele>749.2</ele>
        <time>2020-08-25T06:43:42Z</time>
      </trkpt>
      <trkpt lat="43.79843" lon="2.86516">
        <ele>747.7</ele>
        <time>2020-08-25T06:43:57Z</time>
      </trkpt>
      <trkpt lat="43.79741" lon="2.86499">
        <ele>740.8</ele>
        <time>2020-08-25T06:44:12Z</time>
      </trkpt>
      <trkpt lat="43.79696" lon="2.86387">
        <ele>737.2</ele>
        <time>2020-08-25T06:44:27Z</time>
      </trkpt>
      <trkpt lat="43.79591" lon="2.86405">
        <ele>735.8</ele>
        <time>2020-08-25T06:44:42Z</time>
      </trkpt>
      <trkpt lat="43.79481" lon="2.86348">
        <ele>726.3</ele>
        <time>2020-08-25T06:44:57Z</time>
      </trkpt>
      <trkpt lat="43.79404" lon="2.86443">
        <ele>728.1</ele>
        <time>2020-08-25T06:45:12Z</time>
      </trkpt>
      <trkpt lat="43.79293" lon="2.86524">
        <ele>725.9</ele>
        <time>2020-08-25T06:45:27Z</time>
      </trkpt>
      <trkpt lat="43.79197" lon="2.8661">
        <ele>719.9</ele>
        <time>2020-08-25T06:45:42Z</time>
      </trkpt>
      <trkpt lat="43.79111" lon="2.86727">
        <ele>715</ele>
        <time>2020-08-25T06:45:57Z</time>
      </trkpt>
      <trkpt lat="43.79005" lon="2.86655">
        <ele>710.1</ele>
        <time>2020-08-25T06:46:12Z</time>
      </trkpt>
      <trkpt lat="43.78974" lon="2.86502">
        <ele>705.2</ele>
        <time>2020-08-25T06:46:27Z</time>
      </trkpt>
      <trkpt lat="43.78983" lon="2.86334">
        <ele>699.6</ele>
        <time>2020-08-25T06:46:42Z</time>
      </trkpt>
      <trkpt lat="43.78969" lon="2.8616">
        <ele>694.2</ele>
        <time>2020-08-25T06:46:57Z</time>
      </trkpt>
      <trkpt lat="43.78926" lon="2.86005">
        <ele>687.3</ele>
        <time>2020-08-25T06:47:12Z</time>
      </trkpt>
      <trkpt lat="43.78857" lon="2.8588">
        <ele>680.7</ele>
        <time>2020-08-25T06:47:27Z</time>
      </trkpt>
      <trkpt lat="43.78781" lon="2.85781">
        <ele>673.2</ele>
        <time>2020-08-25T06:47:42Z</time>
      </trkpt>
      <trkpt lat="43.78845" lon="2.85651">
        <ele>671.8</ele>
        <time>2020-08-25T06:48:02Z</time>
      </trkpt>
      <trkpt lat="43.78801" lon="2.85538">
        <ele>671.2</ele>
        <time>2020-08-25T06:48:32Z</time>
      </trkpt>
      <trkpt lat="43.78754" lon="2.85426">
        <ele>671</ele>
        <time>2020-08-25T06:49:07Z</time>
      </trkpt>
      <trkpt lat="43.78703" lon="2.85305">
        <ele>671.3</ele>
        <time>2020-08-25T06:49:37Z</time>
      </trkpt>
      <trkpt lat="43.78611" lon="2.85285">
        <ele>671</ele>
        <time>2020-08-25T06:50:22Z</time>
      </trkpt>
      <trkpt lat="43.78704" lon="2.85274">
        <ele>673.4</ele>
        <time>2020-08-25T06:54:06Z</time>
      </trkpt>
      <trkpt lat="43.78795" lon="2.85308">
        <ele>672.7</ele>
        <time>2020-08-25T06:55:10Z</time>
      </trkpt>
      <trkpt lat="43.78759" lon="2.8519">
        <ele>676.2</ele>
        <time>2020-08-25T06:57:12Z</time>
      </trkpt>
      <trkpt lat="43.78677" lon="2.85121">
        <ele>678</ele>
        <time>2020-08-25T06:58:20Z</time>
      </trkpt>
      <trkpt lat="43.78629" lon="2.8501">
        <ele>681.9</ele>
        <time>2020-08-25T06:59:41Z</time>
      </trkpt>
      <trkpt lat="43.78617" lon="2.8488">
        <ele>686.2</ele>
        <time>2020-08-25T07:00:43Z</time>
      </trkpt>
      <trkpt lat="43.78591" lon="2.8475">
        <ele>691.4</ele>
        <time>2020-08-25T07:01:46Z</time>
      </trkpt>
      <trkpt lat="43.78537" lon="2.84637">
        <ele>696.4</ele>
        <time>2020-08-25T07:02:45Z</time>
      </trkpt>
      <trkpt lat="43.78475" lon="2.84537">
        <ele>701.2</ele>
        <time>2020-08-25T07:03:44Z</time>
      </trkpt>
      <trkpt lat="43.78392" lon="2.84484">
        <ele>705.6</ele>
        <time>2020-08-25T07:04:45Z</time>
      </trkpt>
      <trkpt lat="43.78334" lon="2.84381">
        <ele>710.7</ele>
        <time>2020-08-25T07:05:48Z</time>
      </trkpt>
      <trkpt lat="43.78258" lon="2.84304">
        <ele>717.4</ele>
        <time>2020-08-25T07:06:55Z</time>
      </trkpt>
      <trkpt lat="43.78172" lon="2.84246">
        <ele>723.9</ele>
        <time>2020-08-25T07:08:00Z</time>
      </trkpt>
      <trkpt lat="43.78079" lon="2.84213">
        <ele>729.9</ele>
        <time>2020-08-25T07:09:07Z</time>
      </trkpt>
      <trkpt lat="43.78" lon="2.84143">
        <ele>735.1</ele>
        <time>2020-08-25T07:10:10Z</time>
      </trkpt>
      <trkpt lat="43.77949" lon="2.84028">
        <ele>741.4</ele>
        <time>2020-08-25T07:11:16Z</time>
      </trkpt>
      <trkpt lat="43.7791" lon="2.83909">
        <ele>750.5</ele>
        <time>2020-08-25T07:12:19Z</time>
      </trkpt>
      <trkpt lat="43.77882" lon="2.83781">
        <ele>759.9</ele>
        <time>2020-08-25T07:13:25Z</time>
      </trkpt>
      <trkpt lat="43.77834" lon="2.83663">
        <ele>768</ele>
        <time>2020-08-25T07:14:35Z</time>
      </trkpt>
      <trkpt lat="43.7779" lon="2.83526">
        <ele>784.4</ele>
        <time>2020-08-25T07:19:10Z</time>
      </trkpt>
      <trkpt lat="43.77758" lon="2.83371">
        <ele>786.4</ele>
        <time>2020-08-25T07:19:25Z</time>
      </trkpt>
      <trkpt lat="43.77701" lon="2.83229">
        <ele>787.6</ele>
        <time>2020-08-25T07:19:40Z</time>
      </trkpt>
      <trkpt lat="43.7779" lon="2.83209">
        <ele>788.5</ele>
        <time>2020-08-25T07:20:33Z</time>
      </trkpt>
      <trkpt lat="43.77874" lon="2.83277">
        <ele>791.5</ele>
        <time>2020-08-25T07:21:45Z</time>
      </trkpt>
      <trkpt lat="43.77957" lon="2.83348">
        <ele>796.4</ele>
        <time>2020-08-25T07:22:57Z</time>
      </trkpt>
      <trkpt lat="43.77962" lon="2.83223">
        <ele>814.9</ele>
        <time>2020-08-25T07:26:04Z</time>
      </trkpt>
      <trkpt lat="43.7791" lon="2.83114">
        <ele>819.6</ele>
        <time>2020-08-25T07:27:09Z</time>
      </trkpt>
      <trkpt lat="43.7784" lon="2.83032">
        <ele>821.9</ele>
        <time>2020-08-25T07:27:49Z</time>
      </trkpt>
      <trkpt lat="43.77773" lon="2.82945">
        <ele>825</ele>
        <time>2020-08-25T07:28:14Z</time>
      </trkpt>
      <trkpt lat="43.77705" lon="2.8286">
        <ele>825.7</ele>
        <time>2020-08-25T07:28:34Z</time>
      </trkpt>
      <trkpt lat="43.77627" lon="2.82775">
        <ele>827.4</ele>
        <time>2020-08-25T07:29:39Z</time>
      </trkpt>
      <trkpt lat="43.77664" lon="2.82645">
        <ele>829.6</ele>
        <time>2020-08-25T07:30:28Z</time>
      </trkpt>
      <trkpt lat="43.77676" lon="2.8251">
        <ele>833.2</ele>
        <time>2020-08-25T07:30:53Z</time>
      </trkpt>
      <trkpt lat="43.7771" lon="2.82375">
        <ele>834.1</ele>
        <time>2020-08-25T07:31:13Z</time>
      </trkpt>
      <trkpt lat="43.77718" lon="2.8224">
        <ele>834.7</ele>
        <time>2020-08-25T07:31:43Z</time>
      </trkpt>
      <trkpt lat="43.77783" lon="2.82144">
        <ele>836</ele>
        <time>2020-08-25T07:32:36Z</time>
      </trkpt>
      <trkpt lat="43.77805" lon="2.8202">
        <ele>837.6</ele>
        <time>2020-08-25T07:33:16Z</time>
      </trkpt>
      <trkpt lat="43.77787" lon="2.81879">
        <ele>840.2</ele>
        <time>2020-08-25T07:33:56Z</time>
      </trkpt>
      <trkpt lat="43.77788" lon="2.81732">
        <ele>841.3</ele>
        <time>2020-08-25T07:34:11Z</time>
      </trkpt>
      <trkpt lat="43.77755" lon="2.816">
        <ele>840.1</ele>
        <time>2020-08-25T07:34:21Z</time>
      </trkpt>
      <trkpt lat="43.77713" lon="2.8147">
        <ele>839.1</ele>
        <time>2020-08-25T07:34:31Z</time>
      </trkpt>
      <trkpt lat="43.77783" lon="2.81385">
        <ele>835.1</ele>
        <time>2020-08-25T07:34:46Z</time>
      </trkpt>
      <trkpt lat="43.77705" lon="2.81293">
        <ele>830.9</ele>
        <time>2020-08-25T07:35:06Z</time>
      </trkpt>
      <trkpt lat="43.77758" lon="2.8119">
        <ele>824.1</ele>
        <time>2020-08-25T07:35:26Z</time>
      </trkpt>
      <trkpt lat="43.77877" lon="2.8127">
        <ele>818.6</ele>
        <time>2020-08-25T07:35:41Z</time>
      </trkpt>
      <trkpt lat="43.77874" lon="2.81099">
        <ele>804.3</ele>
        <time>2020-08-25T07:36:16Z</time>
      </trkpt>
      <trkpt lat="43.77867" lon="2.80942">
        <ele>793.5</ele>
        <time>2020-08-25T07:36:31Z</time>
      </trkpt>
      <trkpt lat="43.7789" lon="2.80817">
        <ele>786.8</ele>
        <time>2020-08-25T07:36:51Z</time>
      </trkpt>
      <trkpt lat="43.77882" lon="2.80686">
        <ele>790.6</ele>
        <time>2020-08-25T07:37:53Z</time>
      </trkpt>
      <trkpt lat="43.77846" lon="2.80567">
        <ele>794</ele>
        <time>2020-08-25T07:39:10Z</time>
      </trkpt>
      <trkpt lat="43.77787" lon="2.80462">
        <ele>795</ele>
        <time>2020-08-25T07:39:40Z</time>
      </trkpt>
      <trkpt lat="43.77707" lon="2.80384">
        <ele>796.6</ele>
        <time>2020-08-25T07:40:47Z</time>
      </trkpt>
      <trkpt lat="43.77693" lon="2.80258">
        <ele>802.3</ele>
        <time>2020-08-25T07:42:08Z</time>
      </trkpt>
      <trkpt lat="43.77744" lon="2.80145">
        <ele>805.5</ele>
        <time>2020-08-25T07:43:06Z</time>
      </trkpt>
      <trkpt lat="43.77792" lon="2.8004">
        <ele>807.2</ele>
        <time>2020-08-25T07:43:47Z</time>
      </trkpt>
      <trkpt lat="43.77858" lon="2.79946">
        <ele>810</ele>
        <time>2020-08-25T07:44:55Z</time>
      </trkpt>
      <trkpt lat="43.7795" lon="2.79951">
        <ele>812.9</ele>
        <time>2020-08-25T07:46:00Z</time>
      </trkpt>
      <trkpt lat="43.78042" lon="2.79985">
        <ele>816.2</ele>
        <time>2020-08-25T07:47:12Z</time>
      </trkpt>
      <trkpt lat="43.78136" lon="2.7995">
        <ele>819.2</ele>
        <time>2020-08-25T07:48:17Z</time>
      </trkpt>
      <trkpt lat="43.78215" lon="2.79892">
        <ele>821.3</ele>
        <time>2020-08-25T07:49:16Z</time>
      </trkpt>
      <trkpt lat="43.78304" lon="2.7984">
        <ele>823.5</ele>
        <time>2020-08-25T07:50:23Z</time>
      </trkpt>
      <trkpt lat="43.78395" lon="2.79807">
        <ele>830.5</ele>
        <time>2020-08-25T07:51:39Z</time>
      </trkpt>
      <trkpt lat="43.7842" lon="2.79676">
        <ele>844.2</ele>
        <time>2020-08-25T07:52:30Z</time>
      </trkpt>
      <trkpt lat="43.78415" lon="2.79534">
        <ele>852.7</ele>
        <time>2020-08-25T07:53:10Z</time>
      </trkpt>
      <trkpt lat="43.78413" lon="2.79399">
        <ele>860.5</ele>
        <time>2020-08-25T07:54:13Z</time>
      </trkpt>
      <trkpt lat="43.78416" lon="2.79271">
        <ele>866.9</ele>
        <time>2020-08-25T07:55:23Z</time>
      </trkpt>
      <trkpt lat="43.784" lon="2.79132">
        <ele>871.7</ele>
        <time>2020-08-25T07:56:21Z</time>
      </trkpt>
      <trkpt lat="43.78395" lon="2.78996">
        <ele>873.9</ele>
        <time>2020-08-25T07:56:51Z</time>
      </trkpt>
      <trkpt lat="43.78361" lon="2.78868">
        <ele>877.7</ele>
        <time>2020-08-25T07:57:27Z</time>
      </trkpt>
      <trkpt lat="43.78315" lon="2.78745">
        <ele>879.5</ele>
        <time>2020-08-25T07:57:52Z</time>
      </trkpt>
      <trkpt lat="43.78252" lon="2.78649">
        <ele>880.2</ele>
        <time>2020-08-25T07:58:27Z</time>
      </trkpt>
      <trkpt lat="43.78158" lon="2.78618">
        <ele>881</ele>
        <time>2020-08-25T07:59:02Z</time>
      </trkpt>
      <trkpt lat="43.78056" lon="2.78571">
        <ele>884.4</ele>
        <time>2020-08-25T08:01:56Z</time>
      </trkpt>
      <trkpt lat="43.7798" lon="2.78447">
        <ele>884.4</ele>
        <time>2020-08-25T08:02:11Z</time>
      </trkpt>
      <trkpt lat="43.77874" lon="2.78436">
        <ele>881.2</ele>
        <time>2020-08-25T08:02:26Z</time>
      </trkpt>
      <trkpt lat="43.77807" lon="2.78577">
        <ele>877.3</ele>
        <time>2020-08-25T08:02:36Z</time>
      </trkpt>
      <trkpt lat="43.77729" lon="2.7871">
        <ele>877.8</ele>
        <time>2020-08-25T08:02:46Z</time>
      </trkpt>
      <trkpt lat="43.77631" lon="2.78725">
        <ele>877.2</ele>
        <time>2020-08-25T08:02:56Z</time>
      </trkpt>
      <trkpt lat="43.77501" lon="2.78743">
        <ele>869.4</ele>
        <time>2020-08-25T08:03:11Z</time>
      </trkpt>
      <trkpt lat="43.77425" lon="2.78856">
        <ele>861.7</ele>
        <time>2020-08-25T08:03:21Z</time>
      </trkpt>
      <trkpt lat="43.77322" lon="2.78838">
        <ele>852.7</ele>
        <time>2020-08-25T08:03:31Z</time>
      </trkpt>
      <trkpt lat="43.77225" lon="2.78852">
        <ele>838.2</ele>
        <time>2020-08-25T08:03:41Z</time>
      </trkpt>
      <trkpt lat="43.77193" lon="2.78727">
        <ele>830</ele>
        <time>2020-08-25T08:03:51Z</time>
      </trkpt>
      <trkpt lat="43.772" lon="2.78569">
        <ele>816.1</ele>
        <time>2020-08-25T08:04:01Z</time>
      </trkpt>
      <trkpt lat="43.77213" lon="2.78433">
        <ele>804.7</ele>
        <time>2020-08-25T08:04:11Z</time>
      </trkpt>
      <trkpt lat="43.77128" lon="2.78344">
        <ele>797.4</ele>
        <time>2020-08-25T08:04:21Z</time>
      </trkpt>
      <trkpt lat="43.77054" lon="2.78259">
        <ele>786.5</ele>
        <time>2020-08-25T08:04:31Z</time>
      </trkpt>
      <trkpt lat="43.77013" lon="2.78137">
        <ele>763.1</ele>
        <time>2020-08-25T08:05:32Z</time>
      </trkpt>
      <trkpt lat="43.76953" lon="2.78012">
        <ele>758.4</ele>
        <time>2020-08-25T08:05:42Z</time>
      </trkpt>
      <trkpt lat="43.76949" lon="2.77848">
        <ele>749.6</ele>
        <time>2020-08-25T08:05:57Z</time>
      </trkpt>
      <trkpt lat="43.77037" lon="2.77825">
        <ele>738.7</ele>
        <time>2020-08-25T08:06:07Z</time>
      </trkpt>
      <trkpt lat="43.76977" lon="2.77709">
        <ele>727.4</ele>
        <time>2020-08-25T08:06:27Z</time>
      </trkpt>
      <trkpt lat="43.76857" lon="2.77708">
        <ele>716.6</ele>
        <time>2020-08-25T08:06:42Z</time>
      </trkpt>
      <trkpt lat="43.76752" lon="2.77749">
        <ele>708.1</ele>
        <time>2020-08-25T08:06:52Z</time>
      </trkpt>
      <trkpt lat="43.76663" lon="2.77792">
        <ele>701.6</ele>
        <time>2020-08-25T08:07:02Z</time>
      </trkpt>
      <trkpt lat="43.76615" lon="2.77619">
        <ele>697.1</ele>
        <time>2020-08-25T08:07:17Z</time>
      </trkpt>
      <trkpt lat="43.76545" lon="2.77506">
        <ele>690.5</ele>
        <time>2020-08-25T08:07:27Z</time>
      </trkpt>
      <trkpt lat="43.76443" lon="2.77482">
        <ele>678.2</ele>
        <time>2020-08-25T08:07:37Z</time>
      </trkpt>
      <trkpt lat="43.76407" lon="2.77358">
        <ele>669</ele>
        <time>2020-08-25T08:07:47Z</time>
      </trkpt>
      <trkpt lat="43.76395" lon="2.772">
        <ele>661.3</ele>
        <time>2020-08-25T08:07:57Z</time>
      </trkpt>
      <trkpt lat="43.76306" lon="2.77119">
        <ele>647.9</ele>
        <time>2020-08-25T08:08:12Z</time>
      </trkpt>
      <trkpt lat="43.76278" lon="2.76988">
        <ele>636</ele>
        <time>2020-08-25T08:09:00Z</time>
      </trkpt>
      <trkpt lat="43.76256" lon="2.76865">
        <ele>626.5</ele>
        <time>2020-08-25T08:09:46Z</time>
      </trkpt>
      <trkpt lat="43.762" lon="2.76761">
        <ele>624.7</ele>
        <time>2020-08-25T08:10:34Z</time>
      </trkpt>
      <trkpt lat="43.76151" lon="2.76642">
        <ele>625.1</ele>
        <time>2020-08-25T08:11:36Z</time>
      </trkpt>
      <trkpt lat="43.76101" lon="2.76524">
        <ele>627.3</ele>
        <time>2020-08-25T08:12:41Z</time>
      </trkpt>
      <trkpt lat="43.76041" lon="2.76419">
        <ele>631.4</ele>
        <time>2020-08-25T08:13:40Z</time>
      </trkpt>
      <trkpt lat="43.7597" lon="2.76499">
        <ele>635.7</ele>
        <time>2020-08-25T08:14:59Z</time>
      </trkpt>
      <trkpt lat="43.75886" lon="2.76604">
        <ele>635</ele>
        <time>2020-08-25T08:15:14Z</time>
      </trkpt>
      <trkpt lat="43.75807" lon="2.7666">
        <ele>630.5</ele>
        <time>2020-08-25T08:15:43Z</time>
      </trkpt>
      <trkpt lat="43.75733" lon="2.76741">
        <ele>626.1</ele>
        <time>2020-08-25T08:15:58Z</time>
      </trkpt>
      <trkpt lat="43.75651" lon="2.76659">
        <ele>623</ele>
        <time>2020-08-25T08:16:23Z</time>
      </trkpt>
      <trkpt lat="43.75617" lon="2.76524">
        <ele>619.8</ele>
        <time>2020-08-25T08:16:48Z</time>
      </trkpt>
      <trkpt lat="43.75712" lon="2.76523">
        <ele>621.7</ele>
        <time>2020-08-25T08:17:33Z</time>
      </trkpt>
      <trkpt lat="43.75793" lon="2.76472">
        <ele>623.4</ele>
        <time>2020-08-25T08:18:28Z</time>
      </trkpt>
      <trkpt lat="43.75838" lon="2.76356">
        <ele>626.7</ele>
        <time>2020-08-25T08:19:29Z</time>
      </trkpt>
      <trkpt lat="43.75838" lon="2.76224">
        <ele>630.6</ele>
        <time>2020-08-25T08:20:29Z</time>
      </trkpt>
      <trkpt lat="43.75804" lon="2.76343">
        <ele>641.2</ele>
        <time>2020-08-25T08:22:44Z</time>
      </trkpt>
      <trkpt lat="43.75739" lon="2.76438">
        <ele>646.7</ele>
        <time>2020-08-25T08:23:52Z</time>
      </trkpt>
      <trkpt lat="43.75661" lon="2.76368">
        <ele>649.6</ele>
        <time>2020-08-25T08:24:56Z</time>
      </trkpt>
      <trkpt lat="43.75567" lon="2.76339">
        <ele>651.9</ele>
        <time>2020-08-25T08:26:00Z</time>
      </trkpt>
      <trkpt lat="43.75472" lon="2.76316">
        <ele>654.2</ele>
        <time>2020-08-25T08:27:03Z</time>
      </trkpt>
      <trkpt lat="43.75382" lon="2.7629">
        <ele>657.8</ele>
        <time>2020-08-25T08:28:10Z</time>
      </trkpt>
      <trkpt lat="43.75292" lon="2.76252">
        <ele>662</ele>
        <time>2020-08-25T08:29:17Z</time>
      </trkpt>
      <trkpt lat="43.75198" lon="2.76242">
        <ele>667.4</ele>
        <time>2020-08-25T08:30:17Z</time>
      </trkpt>
      <trkpt lat="43.75104" lon="2.76274">
        <ele>678.2</ele>
        <time>2020-08-25T08:31:23Z</time>
      </trkpt>
      <trkpt lat="43.75021" lon="2.76211">
        <ele>687.1</ele>
        <time>2020-08-25T08:32:27Z</time>
      </trkpt>
      <trkpt lat="43.74937" lon="2.76155">
        <ele>693</ele>
        <time>2020-08-25T08:33:30Z</time>
      </trkpt>
      <trkpt lat="43.74881" lon="2.76043">
        <ele>698</ele>
        <time>2020-08-25T08:34:37Z</time>
      </trkpt>
      <trkpt lat="43.74792" lon="2.75999">
        <ele>703.3</ele>
        <time>2020-08-25T08:36:11Z</time>
      </trkpt>
      <trkpt lat="43.74718" lon="2.76084">
        <ele>711.7</ele>
        <time>2020-08-25T08:37:24Z</time>
      </trkpt>
      <trkpt lat="43.74623" lon="2.76096">
        <ele>725.9</ele>
        <time>2020-08-25T08:38:34Z</time>
      </trkpt>
      <trkpt lat="43.74547" lon="2.76024">
        <ele>749.2</ele>
        <time>2020-08-25T08:47:21Z</time>
      </trkpt>
      <trkpt lat="43.74476" lon="2.75935">
        <ele>754.2</ele>
        <time>2020-08-25T08:48:32Z</time>
      </trkpt>
      <trkpt lat="43.7449" lon="2.75805">
        <ele>757.5</ele>
        <time>2020-08-25T08:49:44Z</time>
      </trkpt>
      <trkpt lat="43.74509" lon="2.75683">
        <ele>759.9</ele>
        <time>2020-08-25T08:50:39Z</time>
      </trkpt>
      <trkpt lat="43.74443" lon="2.75583">
        <ele>763</ele>
        <time>2020-08-25T08:51:44Z</time>
      </trkpt>
      <trkpt lat="43.74351" lon="2.75543">
        <ele>766.3</ele>
        <time>2020-08-25T08:52:50Z</time>
      </trkpt>
      <trkpt lat="43.74284" lon="2.75444">
        <ele>770.7</ele>
        <time>2020-08-25T08:54:02Z</time>
      </trkpt>
      <trkpt lat="43.742" lon="2.75393">
        <ele>775.1</ele>
        <time>2020-08-25T08:55:05Z</time>
      </trkpt>
      <trkpt lat="43.74117" lon="2.75324">
        <ele>780.7</ele>
        <time>2020-08-25T08:56:20Z</time>
      </trkpt>
      <trkpt lat="43.74039" lon="2.75241">
        <ele>786.9</ele>
        <time>2020-08-25T08:57:24Z</time>
      </trkpt>
      <trkpt lat="43.73943" lon="2.75222">
        <ele>798.1</ele>
        <time>2020-08-25T08:58:29Z</time>
      </trkpt>
      <trkpt lat="43.73848" lon="2.75216">
        <ele>808.5</ele>
        <time>2020-08-25T08:59:39Z</time>
      </trkpt>
      <trkpt lat="43.73759" lon="2.75184">
        <ele>821.7</ele>
        <time>2020-08-25T09:01:00Z</time>
      </trkpt>
      <trkpt lat="43.73675" lon="2.7512">
        <ele>834.1</ele>
        <time>2020-08-25T09:02:16Z</time>
      </trkpt>
      <trkpt lat="43.73581" lon="2.75086">
        <ele>845.1</ele>
        <time>2020-08-25T09:03:37Z</time>
      </trkpt>
      <trkpt lat="43.7354" lon="2.74958">
        <ele>854.2</ele>
        <time>2020-08-25T09:04:58Z</time>
      </trkpt>
      <trkpt lat="43.73557" lon="2.74822">
        <ele>859.8</ele>
        <time>2020-08-25T09:06:02Z</time>
      </trkpt>
      <trkpt lat="43.73587" lon="2.74705">
        <ele>864.7</ele>
        <time>2020-08-25T09:06:59Z</time>
      </trkpt>
      <trkpt lat="43.73604" lon="2.74572">
        <ele>869.8</ele>
        <time>2020-08-25T09:08:05Z</time>
      </trkpt>
      <trkpt lat="43.73582" lon="2.7445">
        <ele>873.8</ele>
        <time>2020-08-25T09:09:17Z</time>
      </trkpt>
      <trkpt lat="43.73519" lon="2.74546">
        <ele>880.6</ele>
        <time>2020-08-25T09:10:35Z</time>
      </trkpt>
      <trkpt lat="43.7343" lon="2.74566">
        <ele>891.8</ele>
        <time>2020-08-25T09:12:02Z</time>
      </trkpt>
      <trkpt lat="43.73383" lon="2.74447">
        <ele>901.1</ele>
        <time>2020-08-25T09:13:13Z</time>
      </trkpt>
      <trkpt lat="43.73324" lon="2.74339">
        <ele>909.3</ele>
        <time>2020-08-25T09:14:21Z</time>
      </trkpt>
      <trkpt lat="43.73278" lon="2.74219">
        <ele>914.5</ele>
        <time>2020-08-25T09:15:23Z</time>
      </trkpt>
      <trkpt lat="43.73181" lon="2.74216">
        <ele>921</ele>
        <time>2020-08-25T09:16:32Z</time>
      </trkpt>
      <trkpt lat="43.73084" lon="2.74234">
        <ele>928.9</ele>
        <time>2020-08-25T09:17:43Z</time>
      </trkpt>
      <trkpt lat="43.7299" lon="2.74229">
        <ele>936.6</ele>
        <time>2020-08-25T09:18:57Z</time>
      </trkpt>
      <trkpt lat="43.72968" lon="2.74097">
        <ele>940.7</ele>
        <time>2020-08-25T09:20:06Z</time>
      </trkpt>
      <trkpt lat="43.72922" lon="2.73975">
        <ele>943.9</ele>
        <time>2020-08-25T09:21:10Z</time>
      </trkpt>
      <trkpt lat="43.72852" lon="2.73868">
        <ele>946</ele>
        <time>2020-08-25T09:21:48Z</time>
      </trkpt>
      <trkpt lat="43.72762" lon="2.73813">
        <ele>947.7</ele>
        <time>2020-08-25T09:21:58Z</time>
      </trkpt>
      <trkpt lat="43.72642" lon="2.73799">
        <ele>946.1</ele>
        <time>2020-08-25T09:22:13Z</time>
      </trkpt>
      <trkpt lat="43.72511" lon="2.73785">
        <ele>947.1</ele>
        <time>2020-08-25T09:22:28Z</time>
      </trkpt>
      <trkpt lat="43.72384" lon="2.73737">
        <ele>949.1</ele>
        <time>2020-08-25T09:22:43Z</time>
      </trkpt>
      <trkpt lat="43.72289" lon="2.73622">
        <ele>947.8</ele>
        <time>2020-08-25T09:22:58Z</time>
      </trkpt>
      <trkpt lat="43.72202" lon="2.73514">
        <ele>946.5</ele>
        <time>2020-08-25T09:23:13Z</time>
      </trkpt>
      <trkpt lat="43.72124" lon="2.73391">
        <ele>943.9</ele>
        <time>2020-08-25T09:23:28Z</time>
      </trkpt>
      <trkpt lat="43.72013" lon="2.73403">
        <ele>937.2</ele>
        <time>2020-08-25T09:23:48Z</time>
      </trkpt>
      <trkpt lat="43.71937" lon="2.73484">
        <ele>936.3</ele>
        <time>2020-08-25T09:24:03Z</time>
      </trkpt>
      <trkpt lat="43.71872" lon="2.73571">
        <ele>934.3</ele>
        <time>2020-08-25T09:24:17Z</time>
      </trkpt>
      <trkpt lat="43.71821" lon="2.73679">
        <ele>932.7</ele>
        <time>2020-08-25T09:24:32Z</time>
      </trkpt>
      <trkpt lat="43.71706" lon="2.73693">
        <ele>927.9</ele>
        <time>2020-08-25T09:24:47Z</time>
      </trkpt>
      <trkpt lat="43.71616" lon="2.73706">
        <ele>926.3</ele>
        <time>2020-08-25T09:24:57Z</time>
      </trkpt>
      <trkpt lat="43.71533" lon="2.73796">
        <ele>923.4</ele>
        <time>2020-08-25T09:25:12Z</time>
      </trkpt>
      <trkpt lat="43.71457" lon="2.73694">
        <ele>915.1</ele>
        <time>2020-08-25T09:25:47Z</time>
      </trkpt>
      <trkpt lat="43.71438" lon="2.73563">
        <ele>912.4</ele>
        <time>2020-08-25T09:26:35Z</time>
      </trkpt>
      <trkpt lat="43.71423" lon="2.73425">
        <ele>911</ele>
        <time>2020-08-25T09:27:15Z</time>
      </trkpt>
      <trkpt lat="43.71398" lon="2.73274">
        <ele>909.3</ele>
        <time>2020-08-25T09:27:40Z</time>
      </trkpt>
      <trkpt lat="43.71378" lon="2.73131">
        <ele>908.9</ele>
        <time>2020-08-25T09:28:00Z</time>
      </trkpt>
      <trkpt lat="43.71361" lon="2.73006">
        <ele>908.5</ele>
        <time>2020-08-25T09:28:30Z</time>
      </trkpt>
      <trkpt lat="43.71343" lon="2.72882">
        <ele>909.2</ele>
        <time>2020-08-25T09:29:18Z</time>
      </trkpt>
      <trkpt lat="43.71326" lon="2.72758">
        <ele>911.9</ele>
        <time>2020-08-25T09:30:11Z</time>
      </trkpt>
      <trkpt lat="43.71311" lon="2.72634">
        <ele>914.3</ele>
        <time>2020-08-25T09:33:05Z</time>
      </trkpt>
      <trkpt lat="43.71295" lon="2.725">
        <ele>915.5</ele>
        <time>2020-08-25T09:34:01Z</time>
      </trkpt>
      <trkpt lat="43.71281" lon="2.72372">
        <ele>916.1</ele>
        <time>2020-08-25T09:34:46Z</time>
      </trkpt>
      <trkpt lat="43.71268" lon="2.7224">
        <ele>916.8</ele>
        <time>2020-08-25T09:35:37Z</time>
      </trkpt>
      <trkpt lat="43.71249" lon="2.72108">
        <ele>917.8</ele>
        <time>2020-08-25T09:36:27Z</time>
      </trkpt>
      <trkpt lat="43.71217" lon="2.71984">
        <ele>918.9</ele>
        <time>2020-08-25T09:37:13Z</time>
      </trkpt>
      <trkpt lat="43.71198" lon="2.71833">
        <ele>921.6</ele>
        <time>2020-08-25T09:37:58Z</time>
      </trkpt>
      <trkpt lat="43.71207" lon="2.71673">
        <ele>922.7</ele>
        <time>2020-08-25T09:38:18Z</time>
      </trkpt>
      <trkpt lat="43.71217" lon="2.71516">
        <ele>924.3</ele>
        <time>2020-08-25T09:38:38Z</time>
      </trkpt>
      <trkpt lat="43.71234" lon="2.71367">
        <ele>924.3</ele>
        <time>2020-08-25T09:38:58Z</time>
      </trkpt>
      <trkpt lat="43.71233" lon="2.71219">
        <ele>925.3</ele>
        <time>2020-08-25T09:39:18Z</time>
      </trkpt>
      <trkpt lat="43.71209" lon="2.71076">
        <ele>924.8</ele>
        <time>2020-08-25T09:39:38Z</time>
      </trkpt>
      <trkpt lat="43.71168" lon="2.70957">
        <ele>922.1</ele>
        <time>2020-08-25T09:39:53Z</time>
      </trkpt>
      <trkpt lat="43.71165" lon="2.70792">
        <ele>919.2</ele>
        <time>2020-08-25T09:40:08Z</time>
      </trkpt>
      <trkpt lat="43.7118" lon="2.70668">
        <ele>917.1</ele>
        <time>2020-08-25T09:40:18Z</time>
      </trkpt>
      <trkpt lat="43.71193" lon="2.70534">
        <ele>913.5</ele>
        <time>2020-08-25T09:40:28Z</time>
      </trkpt>
      <trkpt lat="43.71195" lon="2.70382">
        <ele>910.3</ele>
        <time>2020-08-25T09:40:38Z</time>
      </trkpt>
      <trkpt lat="43.71195" lon="2.70234">
        <ele>907.5</ele>
        <time>2020-08-25T09:40:48Z</time>
      </trkpt>
      <trkpt lat="43.71176" lon="2.70094">
        <ele>904.4</ele>
        <time>2020-08-25T09:40:58Z</time>
      </trkpt>
      <trkpt lat="43.71133" lon="2.69965">
        <ele>900.4</ele>
        <time>2020-08-25T09:41:08Z</time>
      </trkpt>
      <trkpt lat="43.71056" lon="2.69894">
        <ele>893.2</ele>
        <time>2020-08-25T09:41:18Z</time>
      </trkpt>
      <trkpt lat="43.70959" lon="2.69891">
        <ele>887.5</ele>
        <time>2020-08-25T09:41:28Z</time>
      </trkpt>
      <trkpt lat="43.70877" lon="2.69948">
        <ele>883.1</ele>
        <time>2020-08-25T09:41:38Z</time>
      </trkpt>
      <trkpt lat="43.70827" lon="2.7006">
        <ele>877.2</ele>
        <time>2020-08-25T09:41:48Z</time>
      </trkpt>
      <trkpt lat="43.70786" lon="2.69939">
        <ele>869.4</ele>
        <time>2020-08-25T09:43:03Z</time>
      </trkpt>
      <trkpt lat="43.70791" lon="2.6979">
        <ele>863.6</ele>
        <time>2020-08-25T09:43:28Z</time>
      </trkpt>
      <trkpt lat="43.70756" lon="2.69656">
        <ele>861.4</ele>
        <time>2020-08-25T09:43:58Z</time>
      </trkpt>
      <trkpt lat="43.70717" lon="2.69519">
        <ele>858.6</ele>
        <time>2020-08-25T09:45:20Z</time>
      </trkpt>
      <trkpt lat="43.70681" lon="2.69378">
        <ele>854.4</ele>
        <time>2020-08-25T09:45:50Z</time>
      </trkpt>
      <trkpt lat="43.70669" lon="2.6924">
        <ele>854.1</ele>
        <time>2020-08-25T09:46:25Z</time>
      </trkpt>
      <trkpt lat="43.70719" lon="2.69132">
        <ele>840.2</ele>
        <time>2020-08-25T10:55:05Z</time>
      </trkpt>
      <trkpt lat="43.70728" lon="2.69002">
        <ele>842.5</ele>
        <time>2020-08-25T10:55:52Z</time>
      </trkpt>
      <trkpt lat="43.70685" lon="2.68888">
        <ele>847.1</ele>
        <time>2020-08-25T10:57:24Z</time>
      </trkpt>
      <trkpt lat="43.70685" lon="2.68753">
        <ele>849.2</ele>
        <time>2020-08-25T10:58:18Z</time>
      </trkpt>
      <trkpt lat="43.70636" lon="2.68644">
        <ele>851.1</ele>
        <time>2020-08-25T10:59:04Z</time>
      </trkpt>
      <trkpt lat="43.70573" lon="2.68732">
        <ele>853.1</ele>
        <time>2020-08-25T10:59:54Z</time>
      </trkpt>
      <trkpt lat="43.70536" lon="2.68851">
        <ele>854.6</ele>
        <time>2020-08-25T11:00:39Z</time>
      </trkpt>
      <trkpt lat="43.70448" lon="2.68786">
        <ele>858</ele>
        <time>2020-08-25T11:01:56Z</time>
      </trkpt>
      <trkpt lat="43.70383" lon="2.68683">
        <ele>861.6</ele>
        <time>2020-08-25T11:03:03Z</time>
      </trkpt>
      <trkpt lat="43.70318" lon="2.68584">
        <ele>865.8</ele>
        <time>2020-08-25T11:04:05Z</time>
      </trkpt>
      <trkpt lat="43.70253" lon="2.68484">
        <ele>870.8</ele>
        <time>2020-08-25T11:05:08Z</time>
      </trkpt>
      <trkpt lat="43.70205" lon="2.6837">
        <ele>876</ele>
        <time>2020-08-25T11:06:11Z</time>
      </trkpt>
      <trkpt lat="43.70164" lon="2.68248">
        <ele>881.9</ele>
        <time>2020-08-25T11:07:20Z</time>
      </trkpt>
      <trkpt lat="43.70127" lon="2.68122">
        <ele>887.5</ele>
        <time>2020-08-25T11:08:20Z</time>
      </trkpt>
      <trkpt lat="43.70096" lon="2.67992">
        <ele>894.4</ele>
        <time>2020-08-25T11:09:22Z</time>
      </trkpt>
      <trkpt lat="43.70062" lon="2.67871">
        <ele>900.8</ele>
        <time>2020-08-25T11:10:25Z</time>
      </trkpt>
      <trkpt lat="43.69984" lon="2.67947">
        <ele>907.8</ele>
        <time>2020-08-25T11:11:38Z</time>
      </trkpt>
      <trkpt lat="43.69955" lon="2.68073">
        <ele>913.4</ele>
        <time>2020-08-25T11:12:44Z</time>
      </trkpt>
      <trkpt lat="43.69936" lon="2.68204">
        <ele>918.6</ele>
        <time>2020-08-25T11:13:47Z</time>
      </trkpt>
      <trkpt lat="43.69908" lon="2.68331">
        <ele>924.3</ele>
        <time>2020-08-25T11:14:50Z</time>
      </trkpt>
      <trkpt lat="43.69881" lon="2.68461">
        <ele>930.8</ele>
        <time>2020-08-25T11:15:54Z</time>
      </trkpt>
      <trkpt lat="43.6984" lon="2.6858">
        <ele>937.1</ele>
        <time>2020-08-25T11:16:57Z</time>
      </trkpt>
      <trkpt lat="43.6975" lon="2.68598">
        <ele>943.5</ele>
        <time>2020-08-25T11:18:02Z</time>
      </trkpt>
      <trkpt lat="43.69685" lon="2.68502">
        <ele>951</ele>
        <time>2020-08-25T11:19:07Z</time>
      </trkpt>
      <trkpt lat="43.69629" lon="2.68391">
        <ele>959.3</ele>
        <time>2020-08-25T11:20:10Z</time>
      </trkpt>
      <trkpt lat="43.696" lon="2.68263">
        <ele>967.5</ele>
        <time>2020-08-25T11:21:14Z</time>
      </trkpt>
      <trkpt lat="43.69585" lon="2.68132">
        <ele>975.4</ele>
        <time>2020-08-25T11:22:20Z</time>
      </trkpt>
      <trkpt lat="43.69546" lon="2.68009">
        <ele>982.5</ele>
        <time>2020-08-25T11:23:26Z</time>
      </trkpt>
      <trkpt lat="43.6951" lon="2.67889">
        <ele>988.9</ele>
        <time>2020-08-25T11:24:26Z</time>
      </trkpt>
      <trkpt lat="43.69486" lon="2.67761">
        <ele>996.2</ele>
        <time>2020-08-25T11:25:31Z</time>
      </trkpt>
      <trkpt lat="43.69429" lon="2.67652">
        <ele>1003.8</ele>
        <time>2020-08-25T11:26:36Z</time>
      </trkpt>
      <trkpt lat="43.69364" lon="2.67549">
        <ele>1010</ele>
        <time>2020-08-25T11:27:39Z</time>
      </trkpt>
      <trkpt lat="43.69288" lon="2.67467">
        <ele>1014.7</ele>
        <time>2020-08-25T11:28:35Z</time>
      </trkpt>
      <trkpt lat="43.69209" lon="2.67388">
        <ele>1019.5</ele>
        <time>2020-08-25T11:29:37Z</time>
      </trkpt>
      <trkpt lat="43.69179" lon="2.67265">
        <ele>1025.3</ele>
        <time>2020-08-25T11:31:03Z</time>
      </trkpt>
      <trkpt lat="43.69157" lon="2.67115">
        <ele>1035</ele>
        <time>2020-08-25T11:31:52Z</time>
      </trkpt>
      <trkpt lat="43.69107" lon="2.66985">
        <ele>1037.5</ele>
        <time>2020-08-25T11:32:17Z</time>
      </trkpt>
      <trkpt lat="43.6908" lon="2.66859">
        <ele>1039.1</ele>
        <time>2020-08-25T11:32:37Z</time>
      </trkpt>
      <trkpt lat="43.6909" lon="2.66709">
        <ele>1040.2</ele>
        <time>2020-08-25T11:33:02Z</time>
      </trkpt>
      <trkpt lat="43.69046" lon="2.66586">
        <ele>1041</ele>
        <time>2020-08-25T11:33:27Z</time>
      </trkpt>
      <trkpt lat="43.68977" lon="2.66486">
        <ele>1041.6</ele>
        <time>2020-08-25T11:33:57Z</time>
      </trkpt>
      <trkpt lat="43.68977" lon="2.66352">
        <ele>1042.9</ele>
        <time>2020-08-25T11:34:27Z</time>
      </trkpt>
      <trkpt lat="43.6893" lon="2.66238">
        <ele>1044.5</ele>
        <time>2020-08-25T11:34:57Z</time>
      </trkpt>
      <trkpt lat="43.68871" lon="2.66128">
        <ele>1046</ele>
        <time>2020-08-25T11:35:27Z</time>
      </trkpt>
      <trkpt lat="43.68841" lon="2.66002">
        <ele>1047.5</ele>
        <time>2020-08-25T11:36:02Z</time>
      </trkpt>
      <trkpt lat="43.68769" lon="2.65912">
        <ele>1049</ele>
        <time>2020-08-25T11:36:37Z</time>
      </trkpt>
      <trkpt lat="43.68682" lon="2.65842">
        <ele>1050.5</ele>
        <time>2020-08-25T11:37:17Z</time>
      </trkpt>
      <trkpt lat="43.68592" lon="2.65867">
        <ele>1051.8</ele>
        <time>2020-08-25T11:37:52Z</time>
      </trkpt>
      <trkpt lat="43.68507" lon="2.65926">
        <ele>1053.2</ele>
        <time>2020-08-25T11:38:27Z</time>
      </trkpt>
      <trkpt lat="43.68408" lon="2.65901">
        <ele>1054.8</ele>
        <time>2020-08-25T11:39:07Z</time>
      </trkpt>
      <trkpt lat="43.68315" lon="2.65876">
        <ele>1056.5</ele>
        <time>2020-08-25T11:39:42Z</time>
      </trkpt>
      <trkpt lat="43.68225" lon="2.65804">
        <ele>1060</ele>
        <time>2020-08-25T11:40:17Z</time>
      </trkpt>
      <trkpt lat="43.6815" lon="2.65699">
        <ele>1061</ele>
        <time>2020-08-25T11:40:37Z</time>
      </trkpt>
      <trkpt lat="43.68082" lon="2.65612">
        <ele>1061.2</ele>
        <time>2020-08-25T11:40:52Z</time>
      </trkpt>
      <trkpt lat="43.67981" lon="2.65634">
        <ele>1060.9</ele>
        <time>2020-08-25T11:41:07Z</time>
      </trkpt>
      <trkpt lat="43.67883" lon="2.65701">
        <ele>1060.5</ele>
        <time>2020-08-25T11:41:22Z</time>
      </trkpt>
      <trkpt lat="43.67768" lon="2.65668">
        <ele>1058.6</ele>
        <time>2020-08-25T11:41:37Z</time>
      </trkpt>
      <trkpt lat="43.67738" lon="2.65541">
        <ele>1057.8</ele>
        <time>2020-08-25T11:41:52Z</time>
      </trkpt>
      <trkpt lat="43.67739" lon="2.65381">
        <ele>1057.9</ele>
        <time>2020-08-25T11:42:07Z</time>
      </trkpt>
      <trkpt lat="43.67653" lon="2.65255">
        <ele>1053.3</ele>
        <time>2020-08-25T11:42:22Z</time>
      </trkpt>
      <trkpt lat="43.67554" lon="2.65161">
        <ele>1047.2</ele>
        <time>2020-08-25T11:42:37Z</time>
      </trkpt>
      <trkpt lat="43.67425" lon="2.65127">
        <ele>1039.1</ele>
        <time>2020-08-25T11:42:52Z</time>
      </trkpt>
      <trkpt lat="43.67293" lon="2.65066">
        <ele>1033.7</ele>
        <time>2020-08-25T11:43:07Z</time>
      </trkpt>
      <trkpt lat="43.67202" lon="2.65033">
        <ele>1027.7</ele>
        <time>2020-08-25T11:43:17Z</time>
      </trkpt>
      <trkpt lat="43.67068" lon="2.65032">
        <ele>1023.4</ele>
        <time>2020-08-25T11:43:32Z</time>
      </trkpt>
      <trkpt lat="43.66977" lon="2.65067">
        <ele>1019.3</ele>
        <time>2020-08-25T11:43:42Z</time>
      </trkpt>
      <trkpt lat="43.66886" lon="2.65026">
        <ele>1015.3</ele>
        <time>2020-08-25T11:43:52Z</time>
      </trkpt>
      <trkpt lat="43.66828" lon="2.6491">
        <ele>1011.4</ele>
        <time>2020-08-25T11:44:02Z</time>
      </trkpt>
      <trkpt lat="43.66799" lon="2.64785">
        <ele>1007</ele>
        <time>2020-08-25T11:44:12Z</time>
      </trkpt>
      <trkpt lat="43.66735" lon="2.64693">
        <ele>1004.4</ele>
        <time>2020-08-25T11:44:27Z</time>
      </trkpt>
      <trkpt lat="43.66635" lon="2.64678">
        <ele>1003.4</ele>
        <time>2020-08-25T11:44:57Z</time>
      </trkpt>
      <trkpt lat="43.66591" lon="2.64789">
        <ele>1002.9</ele>
        <time>2020-08-25T11:45:27Z</time>
      </trkpt>
      <trkpt lat="43.6652" lon="2.64863">
        <ele>1002.4</ele>
        <time>2020-08-25T11:46:07Z</time>
      </trkpt>
      <trkpt lat="43.66436" lon="2.64784">
        <ele>1004</ele>
        <time>2020-08-25T11:47:09Z</time>
      </trkpt>
      <trkpt lat="43.6634" lon="2.64802">
        <ele>1004.9</ele>
        <time>2020-08-25T11:47:56Z</time>
      </trkpt>
      <trkpt lat="43.66249" lon="2.64793">
        <ele>1005.5</ele>
        <time>2020-08-25T11:48:36Z</time>
      </trkpt>
      <trkpt lat="43.66196" lon="2.64687">
        <ele>1006.1</ele>
        <time>2020-08-25T11:49:21Z</time>
      </trkpt>
      <trkpt lat="43.66212" lon="2.64556">
        <ele>1006.8</ele>
        <time>2020-08-25T11:50:07Z</time>
      </trkpt>
      <trkpt lat="43.66222" lon="2.64419">
        <ele>1008.3</ele>
        <time>2020-08-25T11:51:01Z</time>
      </trkpt>
      <trkpt lat="43.6614" lon="2.64354">
        <ele>1010.2</ele>
        <time>2020-08-25T11:51:53Z</time>
      </trkpt>
      <trkpt lat="43.66053" lon="2.64316">
        <ele>1011.5</ele>
        <time>2020-08-25T11:52:33Z</time>
      </trkpt>
      <trkpt lat="43.6596" lon="2.64333">
        <ele>1013.1</ele>
        <time>2020-08-25T11:53:12Z</time>
      </trkpt>
      <trkpt lat="43.6587" lon="2.64338">
        <ele>1014.5</ele>
        <time>2020-08-25T11:53:47Z</time>
      </trkpt>
      <trkpt lat="43.65788" lon="2.6428">
        <ele>1016.8</ele>
        <time>2020-08-25T11:54:33Z</time>
      </trkpt>
      <trkpt lat="43.657" lon="2.6421">
        <ele>1019.3</ele>
        <time>2020-08-25T11:55:21Z</time>
      </trkpt>
      <trkpt lat="43.65604" lon="2.64243">
        <ele>1021.3</ele>
        <time>2020-08-25T11:56:06Z</time>
      </trkpt>
      <trkpt lat="43.65508" lon="2.6427">
        <ele>1024</ele>
        <time>2020-08-25T11:56:51Z</time>
      </trkpt>
      <trkpt lat="43.65413" lon="2.64265">
        <ele>1027.5</ele>
        <time>2020-08-25T11:57:31Z</time>
      </trkpt>
      <trkpt lat="43.65312" lon="2.64273">
        <ele>1031.7</ele>
        <time>2020-08-25T11:58:11Z</time>
      </trkpt>
      <trkpt lat="43.65235" lon="2.64201">
        <ele>1035.8</ele>
        <time>2020-08-25T11:58:52Z</time>
      </trkpt>
      <trkpt lat="43.65161" lon="2.64103">
        <ele>1039.1</ele>
        <time>2020-08-25T11:59:27Z</time>
      </trkpt>
      <trkpt lat="43.65085" lon="2.6401">
        <ele>1041.9</ele>
        <time>2020-08-25T12:00:02Z</time>
      </trkpt>
      <trkpt lat="43.65021" lon="2.6391">
        <ele>1044.4</ele>
        <time>2020-08-25T12:00:37Z</time>
      </trkpt>
      <trkpt lat="43.64987" lon="2.63779">
        <ele>1046.5</ele>
        <time>2020-08-25T12:01:12Z</time>
      </trkpt>
      <trkpt lat="43.6497" lon="2.63656">
        <ele>1047.9</ele>
        <time>2020-08-25T12:01:42Z</time>
      </trkpt>
      <trkpt lat="43.6489" lon="2.63574">
        <ele>1050.2</ele>
        <time>2020-08-25T12:02:17Z</time>
      </trkpt>
      <trkpt lat="43.64797" lon="2.63558">
        <ele>1054.7</ele>
        <time>2020-08-25T12:02:37Z</time>
      </trkpt>
      <trkpt lat="43.64693" lon="2.63497">
        <ele>1056.5</ele>
        <time>2020-08-25T12:02:57Z</time>
      </trkpt>
      <trkpt lat="43.64619" lon="2.6342">
        <ele>1057.3</ele>
        <time>2020-08-25T12:03:12Z</time>
      </trkpt>
      <trkpt lat="43.64535" lon="2.63347">
        <ele>1057.1</ele>
        <time>2020-08-25T12:03:27Z</time>
      </trkpt>
      <trkpt lat="43.64456" lon="2.63282">
        <ele>1057.4</ele>
        <time>2020-08-25T12:03:42Z</time>
      </trkpt>
      <trkpt lat="43.64379" lon="2.63212">
        <ele>1058.5</ele>
        <time>2020-08-25T12:04:12Z</time>
      </trkpt>
      <trkpt lat="43.64274" lon="2.63184">
        <ele>1062.6</ele>
        <time>2020-08-25T12:04:47Z</time>
      </trkpt>
      <trkpt lat="43.64181" lon="2.63179">
        <ele>1062.7</ele>
        <time>2020-08-25T12:05:12Z</time>
      </trkpt>
      <trkpt lat="43.64072" lon="2.63148">
        <ele>1063</ele>
        <time>2020-08-25T12:05:42Z</time>
      </trkpt>
      <trkpt lat="43.63981" lon="2.63113">
        <ele>1061.2</ele>
        <time>2020-08-25T12:05:57Z</time>
      </trkpt>
      <trkpt lat="43.63888" lon="2.63018">
        <ele>1058.4</ele>
        <time>2020-08-25T12:06:12Z</time>
      </trkpt>
      <trkpt lat="43.63772" lon="2.62937">
        <ele>1054</ele>
        <time>2020-08-25T12:06:27Z</time>
      </trkpt>
      <trkpt lat="43.63655" lon="2.62856">
        <ele>1047.4</ele>
        <time>2020-08-25T12:06:37Z</time>
      </trkpt>
      <trkpt lat="43.63564" lon="2.62794">
        <ele>1042.1</ele>
        <time>2020-08-25T12:06:47Z</time>
      </trkpt>
      <trkpt lat="43.63482" lon="2.62696">
        <ele>1035.4</ele>
        <time>2020-08-25T12:06:57Z</time>
      </trkpt>
      <trkpt lat="43.6338" lon="2.62622">
        <ele>1028.1</ele>
        <time>2020-08-25T12:07:07Z</time>
      </trkpt>
      <trkpt lat="43.63291" lon="2.62524">
        <ele>1004.5</ele>
        <time>2020-08-25T12:07:22Z</time>
      </trkpt>
      <trkpt lat="43.63226" lon="2.62406">
        <ele>995.4</ele>
        <time>2020-08-25T12:07:32Z</time>
      </trkpt>
      <trkpt lat="43.63148" lon="2.62308">
        <ele>988.4</ele>
        <time>2020-08-25T12:07:42Z</time>
      </trkpt>
      <trkpt lat="43.63062" lon="2.62207">
        <ele>978.4</ele>
        <time>2020-08-25T12:07:52Z</time>
      </trkpt>
      <trkpt lat="43.62956" lon="2.62134">
        <ele>972.6</ele>
        <time>2020-08-25T12:08:02Z</time>
      </trkpt>
      <trkpt lat="43.62847" lon="2.62066">
        <ele>963.3</ele>
        <time>2020-08-25T12:08:12Z</time>
      </trkpt>
      <trkpt lat="43.62747" lon="2.61949">
        <ele>953.1</ele>
        <time>2020-08-25T12:08:22Z</time>
      </trkpt>
      <trkpt lat="43.62661" lon="2.61785">
        <ele>943.5</ele>
        <time>2020-08-25T12:08:32Z</time>
      </trkpt>
      <trkpt lat="43.62583" lon="2.61707">
        <ele>936.3</ele>
        <time>2020-08-25T12:08:42Z</time>
      </trkpt>
      <trkpt lat="43.62503" lon="2.61544">
        <ele>919.7</ele>
        <time>2020-08-25T12:08:57Z</time>
      </trkpt>
      <trkpt lat="43.62496" lon="2.61408">
        <ele>922.6</ele>
        <time>2020-08-25T12:09:07Z</time>
      </trkpt>
      <trkpt lat="43.62462" lon="2.61263">
        <ele>904.9</ele>
        <time>2020-08-25T12:09:27Z</time>
      </trkpt>
      <trkpt lat="43.62444" lon="2.61095">
        <ele>908</ele>
        <time>2020-08-25T12:10:32Z</time>
      </trkpt>
      <trkpt lat="43.62439" lon="2.60961">
        <ele>900.6</ele>
        <time>2020-08-25T12:10:47Z</time>
      </trkpt>
      <trkpt lat="43.62344" lon="2.60872">
        <ele>886.9</ele>
        <time>2020-08-25T12:11:07Z</time>
      </trkpt>
      <trkpt lat="43.62255" lon="2.60788">
        <ele>880.8</ele>
        <time>2020-08-25T12:11:17Z</time>
      </trkpt>
      <trkpt lat="43.62165" lon="2.60735">
        <ele>872.1</ele>
        <time>2020-08-25T12:11:27Z</time>
      </trkpt>
      <trkpt lat="43.62081" lon="2.6067">
        <ele>861.5</ele>
        <time>2020-08-25T12:11:37Z</time>
      </trkpt>
      <trkpt lat="43.61988" lon="2.60619">
        <ele>856.6</ele>
        <time>2020-08-25T12:11:52Z</time>
      </trkpt>
      <trkpt lat="43.61881" lon="2.60567">
        <ele>854.3</ele>
        <time>2020-08-25T12:12:22Z</time>
      </trkpt>
      <trkpt lat="43.61771" lon="2.60583">
        <ele>854.1</ele>
        <time>2020-08-25T12:12:42Z</time>
      </trkpt>
      <trkpt lat="43.61681" lon="2.60505">
        <ele>846.8</ele>
        <time>2020-08-25T12:13:02Z</time>
      </trkpt>
      <trkpt lat="43.61594" lon="2.60344">
        <ele>841.9</ele>
        <time>2020-08-25T12:13:17Z</time>
      </trkpt>
      <trkpt lat="43.61488" lon="2.60311">
        <ele>835.9</ele>
        <time>2020-08-25T12:13:32Z</time>
      </trkpt>
      <trkpt lat="43.61375" lon="2.60246">
        <ele>830.1</ele>
        <time>2020-08-25T12:13:47Z</time>
      </trkpt>
      <trkpt lat="43.61275" lon="2.60168">
        <ele>820.5</ele>
        <time>2020-08-25T12:14:02Z</time>
      </trkpt>
      <trkpt lat="43.61188" lon="2.60123">
        <ele>822.4</ele>
        <time>2020-08-25T12:14:12Z</time>
      </trkpt>
      <trkpt lat="43.61102" lon="2.60028">
        <ele>821.6</ele>
        <time>2020-08-25T12:14:27Z</time>
      </trkpt>
      <trkpt lat="43.61018" lon="2.59954">
        <ele>816.5</ele>
        <time>2020-08-25T12:14:47Z</time>
      </trkpt>
      <trkpt lat="43.60923" lon="2.59898">
        <ele>808.2</ele>
        <time>2020-08-25T12:15:07Z</time>
      </trkpt>
      <trkpt lat="43.60831" lon="2.59894">
        <ele>807.2</ele>
        <time>2020-08-25T12:15:27Z</time>
      </trkpt>
      <trkpt lat="43.60735" lon="2.59888">
        <ele>806.7</ele>
        <time>2020-08-25T12:15:47Z</time>
      </trkpt>
      <trkpt lat="43.60638" lon="2.59897">
        <ele>805</ele>
        <time>2020-08-25T12:16:07Z</time>
      </trkpt>
      <trkpt lat="43.60518" lon="2.59909">
        <ele>802</ele>
        <time>2020-08-25T12:16:22Z</time>
      </trkpt>
      <trkpt lat="43.6042" lon="2.59951">
        <ele>799</ele>
        <time>2020-08-25T12:16:37Z</time>
      </trkpt>
      <trkpt lat="43.60288" lon="2.59944">
        <ele>791.2</ele>
        <time>2020-08-25T12:16:52Z</time>
      </trkpt>
      <trkpt lat="43.60187" lon="2.59899">
        <ele>786.5</ele>
        <time>2020-08-25T12:17:02Z</time>
      </trkpt>
      <trkpt lat="43.60065" lon="2.59905">
        <ele>782.8</ele>
        <time>2020-08-25T12:17:12Z</time>
      </trkpt>
      <trkpt lat="43.59962" lon="2.5984">
        <ele>778.1</ele>
        <time>2020-08-25T12:17:22Z</time>
      </trkpt>
      <trkpt lat="43.59883" lon="2.59754">
        <ele>767.5</ele>
        <time>2020-08-25T12:17:32Z</time>
      </trkpt>
      <trkpt lat="43.59792" lon="2.59795">
        <ele>762.2</ele>
        <time>2020-08-25T12:17:41Z</time>
      </trkpt>
      <trkpt lat="43.59735" lon="2.59926">
        <ele>751.4</ele>
        <time>2020-08-25T12:17:56Z</time>
      </trkpt>
      <trkpt lat="43.59635" lon="2.60012">
        <ele>743.4</ele>
        <time>2020-08-25T12:18:11Z</time>
      </trkpt>
      <trkpt lat="43.59555" lon="2.59895">
        <ele>737.1</ele>
        <time>2020-08-25T12:18:26Z</time>
      </trkpt>
      <trkpt lat="43.59562" lon="2.59746">
        <ele>739.9</ele>
        <time>2020-08-25T12:18:41Z</time>
      </trkpt>
      <trkpt lat="43.59528" lon="2.59618">
        <ele>731.5</ele>
        <time>2020-08-25T12:19:01Z</time>
      </trkpt>
      <trkpt lat="43.59479" lon="2.59498">
        <ele>723.9</ele>
        <time>2020-08-25T12:19:26Z</time>
      </trkpt>
      <trkpt lat="43.59383" lon="2.59481">
        <ele>722.4</ele>
        <time>2020-08-25T12:19:56Z</time>
      </trkpt>
      <trkpt lat="43.59371" lon="2.59352">
        <ele>723</ele>
        <time>2020-08-25T12:20:36Z</time>
      </trkpt>
      <trkpt lat="43.59325" lon="2.59235">
        <ele>724.5</ele>
        <time>2020-08-25T12:21:26Z</time>
      </trkpt>
      <trkpt lat="43.59229" lon="2.59243">
        <ele>726.3</ele>
        <time>2020-08-25T12:22:07Z</time>
      </trkpt>
      <trkpt lat="43.59138" lon="2.59266">
        <ele>729</ele>
        <time>2020-08-25T12:22:52Z</time>
      </trkpt>
      <trkpt lat="43.59105" lon="2.59385">
        <ele>731</ele>
        <time>2020-08-25T12:23:33Z</time>
      </trkpt>
      <trkpt lat="43.59089" lon="2.59513">
        <ele>732.7</ele>
        <time>2020-08-25T12:24:13Z</time>
      </trkpt>
      <trkpt lat="43.59061" lon="2.59647">
        <ele>734.5</ele>
        <time>2020-08-25T12:24:48Z</time>
      </trkpt>
      <trkpt lat="43.59032" lon="2.59769">
        <ele>736.3</ele>
        <time>2020-08-25T12:25:18Z</time>
      </trkpt>
      <trkpt lat="43.59069" lon="2.59912">
        <ele>738.4</ele>
        <time>2020-08-25T12:26:28Z</time>
      </trkpt>
      <trkpt lat="43.58997" lon="2.59832">
        <ele>742</ele>
        <time>2020-08-25T12:27:48Z</time>
      </trkpt>
      <trkpt lat="43.58999" lon="2.59695">
        <ele>745.6</ele>
        <time>2020-08-25T12:28:38Z</time>
      </trkpt>
      <trkpt lat="43.59014" lon="2.59567">
        <ele>748.8</ele>
        <time>2020-08-25T12:29:27Z</time>
      </trkpt>
      <trkpt lat="43.59021" lon="2.59443">
        <ele>751.5</ele>
        <time>2020-08-25T12:30:13Z</time>
      </trkpt>
      <trkpt lat="43.59008" lon="2.59317">
        <ele>757.1</ele>
        <time>2020-08-25T12:31:07Z</time>
      </trkpt>
      <trkpt lat="43.58986" lon="2.59183">
        <ele>767.3</ele>
        <time>2020-08-25T12:31:58Z</time>
      </trkpt>
      <trkpt lat="43.58916" lon="2.5909">
        <ele>772.7</ele>
        <time>2020-08-25T12:32:43Z</time>
      </trkpt>
      <trkpt lat="43.58832" lon="2.59156">
        <ele>774.7</ele>
        <time>2020-08-25T12:33:34Z</time>
      </trkpt>
      <trkpt lat="43.58789" lon="2.59038">
        <ele>776.5</ele>
        <time>2020-08-25T12:34:31Z</time>
      </trkpt>
      <trkpt lat="43.5871" lon="2.59113">
        <ele>778.2</ele>
        <time>2020-08-25T12:35:32Z</time>
      </trkpt>
      <trkpt lat="43.58623" lon="2.59075">
        <ele>780.7</ele>
        <time>2020-08-25T12:36:34Z</time>
      </trkpt>
      <trkpt lat="43.5854" lon="2.59016">
        <ele>784</ele>
        <time>2020-08-25T12:37:21Z</time>
      </trkpt>
      <trkpt lat="43.58578" lon="2.58886">
        <ele>786.9</ele>
        <time>2020-08-25T12:38:06Z</time>
      </trkpt>
      <trkpt lat="43.58553" lon="2.58752">
        <ele>789</ele>
        <time>2020-08-25T12:38:41Z</time>
      </trkpt>
      <trkpt lat="43.58532" lon="2.58617">
        <ele>791.3</ele>
        <time>2020-08-25T12:39:21Z</time>
      </trkpt>
      <trkpt lat="43.58526" lon="2.58485">
        <ele>794</ele>
        <time>2020-08-25T12:40:06Z</time>
      </trkpt>
      <trkpt lat="43.58478" lon="2.58367">
        <ele>796.1</ele>
        <time>2020-08-25T12:40:52Z</time>
      </trkpt>
      <trkpt lat="43.58393" lon="2.58305">
        <ele>798.1</ele>
        <time>2020-08-25T12:41:42Z</time>
      </trkpt>
      <trkpt lat="43.58368" lon="2.58176">
        <ele>810.3</ele>
        <time>2020-08-25T12:43:02Z</time>
      </trkpt>
      <trkpt lat="43.58363" lon="2.58042">
        <ele>819.7</ele>
        <time>2020-08-25T12:43:59Z</time>
      </trkpt>
      <trkpt lat="43.58331" lon="2.57916">
        <ele>827</ele>
        <time>2020-08-25T12:44:56Z</time>
      </trkpt>
      <trkpt lat="43.58287" lon="2.57794">
        <ele>831.3</ele>
        <time>2020-08-25T12:45:55Z</time>
      </trkpt>
      <trkpt lat="43.58211" lon="2.57714">
        <ele>833.8</ele>
        <time>2020-08-25T12:46:53Z</time>
      </trkpt>
      <trkpt lat="43.58151" lon="2.57618">
        <ele>839.5</ele>
        <time>2020-08-25T12:48:00Z</time>
      </trkpt>
      <trkpt lat="43.58062" lon="2.57652">
        <ele>842.4</ele>
        <time>2020-08-25T12:48:49Z</time>
      </trkpt>
      <trkpt lat="43.58068" lon="2.57522">
        <ele>847.2</ele>
        <time>2020-08-25T12:49:45Z</time>
      </trkpt>
      <trkpt lat="43.5808" lon="2.57397">
        <ele>850.9</ele>
        <time>2020-08-25T12:50:25Z</time>
      </trkpt>
      <trkpt lat="43.58001" lon="2.57325">
        <ele>855</ele>
        <time>2020-08-25T12:51:16Z</time>
      </trkpt>
      <trkpt lat="43.57903" lon="2.57324">
        <ele>858.5</ele>
        <time>2020-08-25T12:52:13Z</time>
      </trkpt>
      <trkpt lat="43.5779" lon="2.57319">
        <ele>861.1</ele>
        <time>2020-08-25T12:52:54Z</time>
      </trkpt>
      <trkpt lat="43.57665" lon="2.57295">
        <ele>861</ele>
        <time>2020-08-25T12:53:09Z</time>
      </trkpt>
      <trkpt lat="43.57559" lon="2.57272">
        <ele>860.1</ele>
        <time>2020-08-25T12:53:19Z</time>
      </trkpt>
      <trkpt lat="43.57462" lon="2.57249">
        <ele>859.6</ele>
        <time>2020-08-25T12:53:29Z</time>
      </trkpt>
      <trkpt lat="43.57353" lon="2.5719">
        <ele>856.1</ele>
        <time>2020-08-25T12:53:44Z</time>
      </trkpt>
      <trkpt lat="43.57252" lon="2.57138">
        <ele>854.3</ele>
        <time>2020-08-25T12:53:59Z</time>
      </trkpt>
      <trkpt lat="43.57145" lon="2.57211">
        <ele>853.5</ele>
        <time>2020-08-25T12:54:14Z</time>
      </trkpt>
      <trkpt lat="43.5703" lon="2.57245">
        <ele>849.4</ele>
        <time>2020-08-25T12:54:29Z</time>
      </trkpt>
      <trkpt lat="43.56973" lon="2.57142">
        <ele>847.6</ele>
        <time>2020-08-25T12:54:44Z</time>
      </trkpt>
      <trkpt lat="43.56866" lon="2.57037">
        <ele>842.8</ele>
        <time>2020-08-25T12:54:59Z</time>
      </trkpt>
      <trkpt lat="43.56778" lon="2.56912">
        <ele>838.8</ele>
        <time>2020-08-25T12:55:14Z</time>
      </trkpt>
      <trkpt lat="43.56716" lon="2.56781">
        <ele>835.5</ele>
        <time>2020-08-25T12:55:29Z</time>
      </trkpt>
      <trkpt lat="43.56764" lon="2.56635">
        <ele>831.5</ele>
        <time>2020-08-25T12:55:44Z</time>
      </trkpt>
      <trkpt lat="43.5668" lon="2.56573">
        <ele>825.6</ele>
        <time>2020-08-25T12:55:59Z</time>
      </trkpt>
      <trkpt lat="43.56573" lon="2.56513">
        <ele>822.1</ele>
        <time>2020-08-25T12:56:14Z</time>
      </trkpt>
      <trkpt lat="43.56502" lon="2.56432">
        <ele>818.6</ele>
        <time>2020-08-25T12:56:29Z</time>
      </trkpt>
      <trkpt lat="43.56421" lon="2.56354">
        <ele>816.3</ele>
        <time>2020-08-25T12:56:54Z</time>
      </trkpt>
      <trkpt lat="43.56354" lon="2.56254">
        <ele>813.6</ele>
        <time>2020-08-25T12:57:24Z</time>
      </trkpt>
      <trkpt lat="43.56335" lon="2.56113">
        <ele>811.3</ele>
        <time>2020-08-25T12:57:44Z</time>
      </trkpt>
      <trkpt lat="43.56343" lon="2.55966">
        <ele>808.3</ele>
        <time>2020-08-25T12:58:35Z</time>
      </trkpt>
      <trkpt lat="43.56361" lon="2.55843">
        <ele>805.5</ele>
        <time>2020-08-25T12:58:55Z</time>
      </trkpt>
      <trkpt lat="43.56443" lon="2.55787">
        <ele>802.3</ele>
        <time>2020-08-25T12:59:10Z</time>
      </trkpt>
      <trkpt lat="43.56548" lon="2.55694">
        <ele>796.5</ele>
        <time>2020-08-25T12:59:25Z</time>
      </trkpt>
      <trkpt lat="43.56582" lon="2.55543">
        <ele>795.7</ele>
        <time>2020-08-25T12:59:40Z</time>
      </trkpt>
      <trkpt lat="43.56603" lon="2.55423">
        <ele>793.8</ele>
        <time>2020-08-25T13:00:27Z</time>
      </trkpt>
      <trkpt lat="43.56664" lon="2.55324">
        <ele>794.2</ele>
        <time>2020-08-25T13:01:32Z</time>
      </trkpt>
      <trkpt lat="43.56746" lon="2.55266">
        <ele>796.7</ele>
        <time>2020-08-25T13:02:26Z</time>
      </trkpt>
      <trkpt lat="43.56768" lon="2.55141">
        <ele>798.4</ele>
        <time>2020-08-25T13:03:19Z</time>
      </trkpt>
      <trkpt lat="43.56748" lon="2.5501">
        <ele>800.9</ele>
        <time>2020-08-25T13:04:15Z</time>
      </trkpt>
      <trkpt lat="43.56694" lon="2.54905">
        <ele>804.9</ele>
        <time>2020-08-25T13:05:01Z</time>
      </trkpt>
      <trkpt lat="43.56661" lon="2.54773">
        <ele>807</ele>
        <time>2020-08-25T13:05:36Z</time>
      </trkpt>
      <trkpt lat="43.56684" lon="2.54626">
        <ele>810.4</ele>
        <time>2020-08-25T13:07:42Z</time>
      </trkpt>
      <trkpt lat="43.56715" lon="2.54496">
        <ele>810</ele>
        <time>2020-08-25T13:07:57Z</time>
      </trkpt>
      <trkpt lat="43.56663" lon="2.54378">
        <ele>810.7</ele>
        <time>2020-08-25T13:08:22Z</time>
      </trkpt>
      <trkpt lat="43.56608" lon="2.54273">
        <ele>810.2</ele>
        <time>2020-08-25T13:08:47Z</time>
      </trkpt>
      <trkpt lat="43.56522" lon="2.54212">
        <ele>808.3</ele>
        <time>2020-08-25T13:09:07Z</time>
      </trkpt>
      <trkpt lat="43.56421" lon="2.5419">
        <ele>808.7</ele>
        <time>2020-08-25T13:09:27Z</time>
      </trkpt>
      <trkpt lat="43.5631" lon="2.54199">
        <ele>811.1</ele>
        <time>2020-08-25T13:09:59Z</time>
      </trkpt>
      <trkpt lat="43.56325" lon="2.54069">
        <ele>809.1</ele>
        <time>2020-08-25T13:10:19Z</time>
      </trkpt>
      <trkpt lat="43.56318" lon="2.53885">
        <ele>806.8</ele>
        <time>2020-08-25T13:10:39Z</time>
      </trkpt>
      <trkpt lat="43.56317" lon="2.53725">
        <ele>804.2</ele>
        <time>2020-08-25T13:10:54Z</time>
      </trkpt>
      <trkpt lat="43.56245" lon="2.53622">
        <ele>805.5</ele>
        <time>2020-08-25T13:11:14Z</time>
      </trkpt>
      <trkpt lat="43.56279" lon="2.53496">
        <ele>807.3</ele>
        <time>2020-08-25T13:12:36Z</time>
      </trkpt>
      <trkpt lat="43.56336" lon="2.53401">
        <ele>808.9</ele>
        <time>2020-08-25T13:13:20Z</time>
      </trkpt>
      <trkpt lat="43.56359" lon="2.53274">
        <ele>810.6</ele>
        <time>2020-08-25T13:13:45Z</time>
      </trkpt>
      <trkpt lat="43.56348" lon="2.53119">
        <ele>810.4</ele>
        <time>2020-08-25T13:14:05Z</time>
      </trkpt>
      <trkpt lat="43.56356" lon="2.52959">
        <ele>809.7</ele>
        <time>2020-08-25T13:14:30Z</time>
      </trkpt>
      <trkpt lat="43.56352" lon="2.52832">
        <ele>808.6</ele>
        <time>2020-08-25T13:14:45Z</time>
      </trkpt>
      <trkpt lat="43.56385" lon="2.52717">
        <ele>807.6</ele>
        <time>2020-08-25T13:15:00Z</time>
      </trkpt>
      <trkpt lat="43.56416" lon="2.52576">
        <ele>803.9</ele>
        <time>2020-08-25T13:15:15Z</time>
      </trkpt>
      <trkpt lat="43.56359" lon="2.52477">
        <ele>804.2</ele>
        <time>2020-08-25T13:16:38Z</time>
      </trkpt>
      <trkpt lat="43.56281" lon="2.52405">
        <ele>803.4</ele>
        <time>2020-08-25T13:17:03Z</time>
      </trkpt>
      <trkpt lat="43.56232" lon="2.52259">
        <ele>800.7</ele>
        <time>2020-08-25T13:17:23Z</time>
      </trkpt>
      <trkpt lat="43.56263" lon="2.52127">
        <ele>796.1</ele>
        <time>2020-08-25T13:17:38Z</time>
      </trkpt>
      <trkpt lat="43.56325" lon="2.51984">
        <ele>788.9</ele>
        <time>2020-08-25T13:17:58Z</time>
      </trkpt>
      <trkpt lat="43.56374" lon="2.51847">
        <ele>782.2</ele>
        <time>2020-08-25T13:18:13Z</time>
      </trkpt>
      <trkpt lat="43.5636" lon="2.51692">
        <ele>778.1</ele>
        <time>2020-08-25T13:18:28Z</time>
      </trkpt>
      <trkpt lat="43.56299" lon="2.51555">
        <ele>773.5</ele>
        <time>2020-08-25T13:18:43Z</time>
      </trkpt>
      <trkpt lat="43.56276" lon="2.51431">
        <ele>767.5</ele>
        <time>2020-08-25T13:18:53Z</time>
      </trkpt>
      <trkpt lat="43.56205" lon="2.51284">
        <ele>758.2</ele>
        <time>2020-08-25T13:19:08Z</time>
      </trkpt>
      <trkpt lat="43.56189" lon="2.51155">
        <ele>761.1</ele>
        <time>2020-08-25T13:19:33Z</time>
      </trkpt>
      <trkpt lat="43.56148" lon="2.51031">
        <ele>763.8</ele>
        <time>2020-08-25T13:20:41Z</time>
      </trkpt>
      <trkpt lat="43.56053" lon="2.51059">
        <ele>768.4</ele>
        <time>2020-08-25T13:21:47Z</time>
      </trkpt>
      <trkpt lat="43.55949" lon="2.51034">
        <ele>767.4</ele>
        <time>2020-08-25T13:22:17Z</time>
      </trkpt>
      <trkpt lat="43.55893" lon="2.5091">
        <ele>767</ele>
        <time>2020-08-25T13:22:47Z</time>
      </trkpt>
      <trkpt lat="43.55808" lon="2.50824">
        <ele>766.1</ele>
        <time>2020-08-25T13:23:17Z</time>
      </trkpt>
      <trkpt lat="43.55756" lon="2.5069">
        <ele>767.9</ele>
        <time>2020-08-25T13:23:47Z</time>
      </trkpt>
      <trkpt lat="43.55753" lon="2.50561">
        <ele>774</ele>
        <time>2020-08-25T13:24:07Z</time>
      </trkpt>
      <trkpt lat="43.55699" lon="2.50455">
        <ele>770</ele>
        <time>2020-08-25T13:24:32Z</time>
      </trkpt>
      <trkpt lat="43.55702" lon="2.50295">
        <ele>766.5</ele>
        <time>2020-08-25T13:24:57Z</time>
      </trkpt>
      <trkpt lat="43.55624" lon="2.50199">
        <ele>764.2</ele>
        <time>2020-08-25T13:25:17Z</time>
      </trkpt>
      <trkpt lat="43.55532" lon="2.50167">
        <ele>762.2</ele>
        <time>2020-08-25T13:25:47Z</time>
      </trkpt>
      <trkpt lat="43.55434" lon="2.50191">
        <ele>761.7</ele>
        <time>2020-08-25T13:26:17Z</time>
      </trkpt>
      <trkpt lat="43.55353" lon="2.50259">
        <ele>761.8</ele>
        <time>2020-08-25T13:26:57Z</time>
      </trkpt>
      <trkpt lat="43.55284" lon="2.50336">
        <ele>762.2</ele>
        <time>2020-08-25T13:27:43Z</time>
      </trkpt>
      <trkpt lat="43.55198" lon="2.50416">
        <ele>762.5</ele>
        <time>2020-08-25T13:28:23Z</time>
      </trkpt>
      <trkpt lat="43.55106" lon="2.5043">
        <ele>762.8</ele>
        <time>2020-08-25T13:28:53Z</time>
      </trkpt>
      <trkpt lat="43.55031" lon="2.50358">
        <ele>763.4</ele>
        <time>2020-08-25T13:29:23Z</time>
      </trkpt>
      <trkpt lat="43.54968" lon="2.50468">
        <ele>764</ele>
        <time>2020-08-25T13:29:53Z</time>
      </trkpt>
      <trkpt lat="43.54895" lon="2.50369">
        <ele>765</ele>
        <time>2020-08-25T13:30:28Z</time>
      </trkpt>
      <trkpt lat="43.54803" lon="2.50342">
        <ele>766.6</ele>
        <time>2020-08-25T13:31:08Z</time>
      </trkpt>
      <trkpt lat="43.54839" lon="2.50223">
        <ele>768.2</ele>
        <time>2020-08-25T13:31:53Z</time>
      </trkpt>
      <trkpt lat="43.54838" lon="2.50095">
        <ele>769.7</ele>
        <time>2020-08-25T13:32:47Z</time>
      </trkpt>
      <trkpt lat="43.54924" lon="2.50009">
        <ele>770.8</ele>
        <time>2020-08-25T13:33:22Z</time>
      </trkpt>
      <trkpt lat="43.54997" lon="2.49899">
        <ele>771.8</ele>
        <time>2020-08-25T13:33:47Z</time>
      </trkpt>
      <trkpt lat="43.5505" lon="2.49761">
        <ele>773.8</ele>
        <time>2020-08-25T13:34:12Z</time>
      </trkpt>
      <trkpt lat="43.55084" lon="2.49634">
        <ele>775.3</ele>
        <time>2020-08-25T13:34:32Z</time>
      </trkpt>
      <trkpt lat="43.54975" lon="2.49583">
        <ele>776.1</ele>
        <time>2020-08-25T13:35:12Z</time>
      </trkpt>
      <trkpt lat="43.54913" lon="2.49481">
        <ele>776.5</ele>
        <time>2020-08-25T13:35:32Z</time>
      </trkpt>
      <trkpt lat="43.54815" lon="2.49495">
        <ele>776.6</ele>
        <time>2020-08-25T13:35:57Z</time>
      </trkpt>
      <trkpt lat="43.54744" lon="2.49606">
        <ele>776.7</ele>
        <time>2020-08-25T13:36:22Z</time>
      </trkpt>
      <trkpt lat="43.54649" lon="2.49654">
        <ele>776.7</ele>
        <time>2020-08-25T13:36:52Z</time>
      </trkpt>
      <trkpt lat="43.54563" lon="2.49612">
        <ele>774.9</ele>
        <time>2020-08-25T13:44:34Z</time>
      </trkpt>
      <trkpt lat="43.54474" lon="2.49579">
        <ele>774.7</ele>
        <time>2020-08-25T13:45:04Z</time>
      </trkpt>
      <trkpt lat="43.54433" lon="2.49411">
        <ele>775.1</ele>
        <time>2020-08-25T13:45:29Z</time>
      </trkpt>
      <trkpt lat="43.5443" lon="2.4927">
        <ele>774.6</ele>
        <time>2020-08-25T13:45:44Z</time>
      </trkpt>
      <trkpt lat="43.54344" lon="2.49196">
        <ele>767.5</ele>
        <time>2020-08-25T13:46:04Z</time>
      </trkpt>
      <trkpt lat="43.5431" lon="2.4907">
        <ele>764.8</ele>
        <time>2020-08-25T13:46:19Z</time>
      </trkpt>
      <trkpt lat="43.54265" lon="2.4894">
        <ele>767</ele>
        <time>2020-08-25T13:46:39Z</time>
      </trkpt>
      <trkpt lat="43.54285" lon="2.48806">
        <ele>767.2</ele>
        <time>2020-08-25T13:47:04Z</time>
      </trkpt>
      <trkpt lat="43.54318" lon="2.48652">
        <ele>765.1</ele>
        <time>2020-08-25T13:47:24Z</time>
      </trkpt>
      <trkpt lat="43.54339" lon="2.48483">
        <ele>761.4</ele>
        <time>2020-08-25T13:47:44Z</time>
      </trkpt>
      <trkpt lat="43.54399" lon="2.48387">
        <ele>757.5</ele>
        <time>2020-08-25T13:47:59Z</time>
      </trkpt>
      <trkpt lat="43.54343" lon="2.48286">
        <ele>754.7</ele>
        <time>2020-08-25T13:49:15Z</time>
      </trkpt>
      <trkpt lat="43.54266" lon="2.48216">
        <ele>755.2</ele>
        <time>2020-08-25T13:50:02Z</time>
      </trkpt>
      <trkpt lat="43.54174" lon="2.48199">
        <ele>756.6</ele>
        <time>2020-08-25T13:50:48Z</time>
      </trkpt>
      <trkpt lat="43.5407" lon="2.48212">
        <ele>757.8</ele>
        <time>2020-08-25T13:51:13Z</time>
      </trkpt>
      <trkpt lat="43.54041" lon="2.48079">
        <ele>757.4</ele>
        <time>2020-08-25T13:51:28Z</time>
      </trkpt>
      <trkpt lat="43.53995" lon="2.47961">
        <ele>757.1</ele>
        <time>2020-08-25T13:51:43Z</time>
      </trkpt>
      <trkpt lat="43.53983" lon="2.47823">
        <ele>757.6</ele>
        <time>2020-08-25T13:52:29Z</time>
      </trkpt>
      <trkpt lat="43.53989" lon="2.47681">
        <ele>761.6</ele>
        <time>2020-08-25T13:53:30Z</time>
      </trkpt>
      <trkpt lat="43.54006" lon="2.47546">
        <ele>763.2</ele>
        <time>2020-08-25T13:54:00Z</time>
      </trkpt>
      <trkpt lat="43.54026" lon="2.47421">
        <ele>763.8</ele>
        <time>2020-08-25T13:54:30Z</time>
      </trkpt>
      <trkpt lat="43.53963" lon="2.47294">
        <ele>767.4</ele>
        <time>2020-08-25T13:55:00Z</time>
      </trkpt>
      <trkpt lat="43.53874" lon="2.47224">
        <ele>765.8</ele>
        <time>2020-08-25T13:55:20Z</time>
      </trkpt>
      <trkpt lat="43.53801" lon="2.47106">
        <ele>765.1</ele>
        <time>2020-08-25T13:55:40Z</time>
      </trkpt>
      <trkpt lat="43.53696" lon="2.47111">
        <ele>760.9</ele>
        <time>2020-08-25T13:55:55Z</time>
      </trkpt>
      <trkpt lat="43.53596" lon="2.47084">
        <ele>758</ele>
        <time>2020-08-25T13:56:10Z</time>
      </trkpt>
      <trkpt lat="43.53539" lon="2.46982">
        <ele>753.1</ele>
        <time>2020-08-25T13:56:24Z</time>
      </trkpt>
      <trkpt lat="43.53485" lon="2.4711">
        <ele>746.4</ele>
        <time>2020-08-25T13:56:39Z</time>
      </trkpt>
      <trkpt lat="43.53398" lon="2.47158">
        <ele>738.8</ele>
        <time>2020-08-25T13:56:54Z</time>
      </trkpt>
      <trkpt lat="43.53288" lon="2.47195">
        <ele>729</ele>
        <time>2020-08-25T13:57:09Z</time>
      </trkpt>
      <trkpt lat="43.53189" lon="2.47197">
        <ele>727.9</ele>
        <time>2020-08-25T13:57:19Z</time>
      </trkpt>
      <trkpt lat="43.53119" lon="2.47087">
        <ele>726.8</ele>
        <time>2020-08-25T13:57:29Z</time>
      </trkpt>
      <trkpt lat="43.53086" lon="2.46961">
        <ele>721.3</ele>
        <time>2020-08-25T13:57:39Z</time>
      </trkpt>
      <trkpt lat="43.52998" lon="2.4691">
        <ele>718</ele>
        <time>2020-08-25T13:57:49Z</time>
      </trkpt>
      <trkpt lat="43.52908" lon="2.46827">
        <ele>701.7</ele>
        <time>2020-08-25T13:57:59Z</time>
      </trkpt>
      <trkpt lat="43.52824" lon="2.46734">
        <ele>692.5</ele>
        <time>2020-08-25T13:58:09Z</time>
      </trkpt>
      <trkpt lat="43.52764" lon="2.46588">
        <ele>685.7</ele>
        <time>2020-08-25T13:58:24Z</time>
      </trkpt>
      <trkpt lat="43.52678" lon="2.46511">
        <ele>680.7</ele>
        <time>2020-08-25T13:58:59Z</time>
      </trkpt>
      <trkpt lat="43.52633" lon="2.46358">
        <ele>672.6</ele>
        <time>2020-08-25T13:59:14Z</time>
      </trkpt>
      <trkpt lat="43.52539" lon="2.46341">
        <ele>662.1</ele>
        <time>2020-08-25T13:59:24Z</time>
      </trkpt>
      <trkpt lat="43.52448" lon="2.46334">
        <ele>645.8</ele>
        <time>2020-08-25T14:00:36Z</time>
      </trkpt>
      <trkpt lat="43.5254" lon="2.46398">
        <ele>636.5</ele>
        <time>2020-08-25T14:01:20Z</time>
      </trkpt>
      <trkpt lat="43.52528" lon="2.46527">
        <ele>632.9</ele>
        <time>2020-08-25T14:01:35Z</time>
      </trkpt>
      <trkpt lat="43.5244" lon="2.46604">
        <ele>624.9</ele>
        <time>2020-08-25T14:02:05Z</time>
      </trkpt>
      <trkpt lat="43.52398" lon="2.46725">
        <ele>619.1</ele>
        <time>2020-08-25T14:02:20Z</time>
      </trkpt>
      <trkpt lat="43.52315" lon="2.46662">
        <ele>624.4</ele>
        <time>2020-08-25T14:03:00Z</time>
      </trkpt>
      <trkpt lat="43.52252" lon="2.46564">
        <ele>624.9</ele>
        <time>2020-08-25T14:03:25Z</time>
      </trkpt>
      <trkpt lat="43.52168" lon="2.46611">
        <ele>619.4</ele>
        <time>2020-08-25T14:03:45Z</time>
      </trkpt>
      <trkpt lat="43.52072" lon="2.46629">
        <ele>616.4</ele>
        <time>2020-08-25T14:04:05Z</time>
      </trkpt>
      <trkpt lat="43.52002" lon="2.46731">
        <ele>614.1</ele>
        <time>2020-08-25T14:05:46Z</time>
      </trkpt>
      <trkpt lat="43.51963" lon="2.46856">
        <ele>613.1</ele>
        <time>2020-08-25T14:06:42Z</time>
      </trkpt>
      <trkpt lat="43.51893" lon="2.46939">
        <ele>614</ele>
        <time>2020-08-25T14:07:30Z</time>
      </trkpt>
      <trkpt lat="43.5188" lon="2.47079">
        <ele>615.5</ele>
        <time>2020-08-25T14:08:15Z</time>
      </trkpt>
      <trkpt lat="43.51787" lon="2.47084">
        <ele>619.8</ele>
        <time>2020-08-25T14:09:22Z</time>
      </trkpt>
      <trkpt lat="43.51702" lon="2.47147">
        <ele>621.5</ele>
        <time>2020-08-25T14:10:10Z</time>
      </trkpt>
      <trkpt lat="43.51636" lon="2.47036">
        <ele>624.9</ele>
        <time>2020-08-25T14:10:58Z</time>
      </trkpt>
      <trkpt lat="43.51551" lon="2.47115">
        <ele>624.7</ele>
        <time>2020-08-25T14:11:18Z</time>
      </trkpt>
      <trkpt lat="43.51465" lon="2.47202">
        <ele>620.5</ele>
        <time>2020-08-25T14:11:33Z</time>
      </trkpt>
      <trkpt lat="43.51454" lon="2.47384">
        <ele>609.2</ele>
        <time>2020-08-25T14:11:48Z</time>
      </trkpt>
      <trkpt lat="43.51443" lon="2.47515">
        <ele>604.7</ele>
        <time>2020-08-25T14:11:58Z</time>
      </trkpt>
      <trkpt lat="43.51343" lon="2.47633">
        <ele>601.6</ele>
        <time>2020-08-25T14:12:13Z</time>
      </trkpt>
      <trkpt lat="43.5142" lon="2.4773">
        <ele>597.6</ele>
        <time>2020-08-25T14:12:38Z</time>
      </trkpt>
      <trkpt lat="43.51458" lon="2.47858">
        <ele>593.8</ele>
        <time>2020-08-25T14:12:48Z</time>
      </trkpt>
      <trkpt lat="43.51364" lon="2.47827">
        <ele>592.4</ele>
        <time>2020-08-25T14:13:36Z</time>
      </trkpt>
      <trkpt lat="43.5127" lon="2.47858">
        <ele>593.9</ele>
        <time>2020-08-25T14:14:44Z</time>
      </trkpt>
      <trkpt lat="43.51181" lon="2.47803">
        <ele>594.2</ele>
        <time>2020-08-25T14:15:42Z</time>
      </trkpt>
      <trkpt lat="43.51159" lon="2.47673">
        <ele>599.6</ele>
        <time>2020-08-25T14:16:53Z</time>
      </trkpt>
      <trkpt lat="43.51177" lon="2.47543">
        <ele>602.3</ele>
        <time>2020-08-25T14:17:53Z</time>
      </trkpt>
      <trkpt lat="43.51202" lon="2.47416">
        <ele>604.3</ele>
        <time>2020-08-25T14:18:43Z</time>
      </trkpt>
      <trkpt lat="43.51135" lon="2.4733">
        <ele>605.4</ele>
        <time>2020-08-25T14:19:23Z</time>
      </trkpt>
      <trkpt lat="43.51063" lon="2.47246">
        <ele>607.7</ele>
        <time>2020-08-25T14:19:58Z</time>
      </trkpt>
      <trkpt lat="43.50984" lon="2.4712">
        <ele>607.8</ele>
        <time>2020-08-25T14:20:13Z</time>
      </trkpt>
      <trkpt lat="43.50994" lon="2.46944">
        <ele>602.5</ele>
        <time>2020-08-25T14:20:28Z</time>
      </trkpt>
      <trkpt lat="43.50968" lon="2.468">
        <ele>599</ele>
        <time>2020-08-25T14:20:43Z</time>
      </trkpt>
      <trkpt lat="43.5097" lon="2.46673">
        <ele>594.3</ele>
        <time>2020-08-25T14:21:02Z</time>
      </trkpt>
      <trkpt lat="43.51021" lon="2.46551">
        <ele>589.5</ele>
        <time>2020-08-25T14:21:17Z</time>
      </trkpt>
      <trkpt lat="43.51052" lon="2.46429">
        <ele>587.7</ele>
        <time>2020-08-25T14:21:32Z</time>
      </trkpt>
      <trkpt lat="43.51006" lon="2.46302">
        <ele>586</ele>
        <time>2020-08-25T14:21:57Z</time>
      </trkpt>
      <trkpt lat="43.50991" lon="2.46174">
        <ele>584.6</ele>
        <time>2020-08-25T14:22:22Z</time>
      </trkpt>
      <trkpt lat="43.50983" lon="2.46027">
        <ele>582.7</ele>
        <time>2020-08-25T14:22:47Z</time>
      </trkpt>
      <trkpt lat="43.51042" lon="2.45872">
        <ele>578.9</ele>
        <time>2020-08-25T14:23:02Z</time>
      </trkpt>
      <trkpt lat="43.51054" lon="2.45747">
        <ele>575.9</ele>
        <time>2020-08-25T14:23:12Z</time>
      </trkpt>
      <trkpt lat="43.51044" lon="2.4557">
        <ele>571.8</ele>
        <time>2020-08-25T14:23:27Z</time>
      </trkpt>
      <trkpt lat="43.51046" lon="2.45393">
        <ele>566.3</ele>
        <time>2020-08-25T14:23:42Z</time>
      </trkpt>
      <trkpt lat="43.51054" lon="2.45266">
        <ele>561.9</ele>
        <time>2020-08-25T14:23:52Z</time>
      </trkpt>
      <trkpt lat="43.51044" lon="2.45128">
        <ele>556.4</ele>
        <time>2020-08-25T14:24:02Z</time>
      </trkpt>
      <trkpt lat="43.51059" lon="2.44982">
        <ele>552.3</ele>
        <time>2020-08-25T14:24:12Z</time>
      </trkpt>
      <trkpt lat="43.51045" lon="2.44841">
        <ele>547.9</ele>
        <time>2020-08-25T14:24:22Z</time>
      </trkpt>
      <trkpt lat="43.50998" lon="2.447">
        <ele>540.6</ele>
        <time>2020-08-25T14:24:37Z</time>
      </trkpt>
      <trkpt lat="43.50943" lon="2.44591">
        <ele>535.7</ele>
        <time>2020-08-25T14:24:57Z</time>
      </trkpt>
      <trkpt lat="43.50896" lon="2.44474">
        <ele>530.9</ele>
        <time>2020-08-25T14:25:22Z</time>
      </trkpt>
      <trkpt lat="43.50848" lon="2.44327">
        <ele>526.2</ele>
        <time>2020-08-25T14:25:42Z</time>
      </trkpt>
      <trkpt lat="43.50819" lon="2.44196">
        <ele>524.3</ele>
        <time>2020-08-25T14:26:07Z</time>
      </trkpt>
      <trkpt lat="43.50833" lon="2.44031">
        <ele>519.6</ele>
        <time>2020-08-25T14:26:27Z</time>
      </trkpt>
      <trkpt lat="43.50801" lon="2.43903">
        <ele>516.2</ele>
        <time>2020-08-25T14:26:42Z</time>
      </trkpt>
      <trkpt lat="43.50779" lon="2.43776">
        <ele>510.8</ele>
        <time>2020-08-25T14:27:26Z</time>
      </trkpt>
      <trkpt lat="43.50757" lon="2.43644">
        <ele>507.2</ele>
        <time>2020-08-25T14:27:46Z</time>
      </trkpt>
      <trkpt lat="43.50763" lon="2.435">
        <ele>501.6</ele>
        <time>2020-08-25T14:28:06Z</time>
      </trkpt>
      <trkpt lat="43.50778" lon="2.43309">
        <ele>495.6</ele>
        <time>2020-08-25T14:28:21Z</time>
      </trkpt>
      <trkpt lat="43.50774" lon="2.43164">
        <ele>491</ele>
        <time>2020-08-25T14:28:31Z</time>
      </trkpt>
      <trkpt lat="43.50775" lon="2.43005">
        <ele>485.5</ele>
        <time>2020-08-25T14:28:46Z</time>
      </trkpt>
      <trkpt lat="43.5077" lon="2.42867">
        <ele>479.6</ele>
        <time>2020-08-25T14:29:06Z</time>
      </trkpt>
      <trkpt lat="43.50754" lon="2.42727">
        <ele>475.1</ele>
        <time>2020-08-25T14:29:26Z</time>
      </trkpt>
      <trkpt lat="43.50751" lon="2.42573">
        <ele>470.4</ele>
        <time>2020-08-25T14:29:41Z</time>
      </trkpt>
      <trkpt lat="43.50724" lon="2.42422">
        <ele>464.2</ele>
        <time>2020-08-25T14:29:56Z</time>
      </trkpt>
      <trkpt lat="43.50614" lon="2.42356">
        <ele>457.3</ele>
        <time>2020-08-25T14:30:11Z</time>
      </trkpt>
      <trkpt lat="43.505" lon="2.42288">
        <ele>449</ele>
        <time>2020-08-25T14:30:53Z</time>
      </trkpt>
      <trkpt lat="43.50427" lon="2.42141">
        <ele>442.1</ele>
        <time>2020-08-25T14:31:08Z</time>
      </trkpt>
      <trkpt lat="43.50372" lon="2.41991">
        <ele>434.4</ele>
        <time>2020-08-25T14:31:23Z</time>
      </trkpt>
      <trkpt lat="43.50331" lon="2.41865">
        <ele>428.5</ele>
        <time>2020-08-25T14:31:33Z</time>
      </trkpt>
      <trkpt lat="43.50266" lon="2.41756">
        <ele>419.7</ele>
        <time>2020-08-25T14:31:43Z</time>
      </trkpt>
      <trkpt lat="43.50265" lon="2.4162">
        <ele>411.8</ele>
        <time>2020-08-25T14:31:53Z</time>
      </trkpt>
      <trkpt lat="43.50309" lon="2.41475">
        <ele>403.4</ele>
        <time>2020-08-25T14:32:03Z</time>
      </trkpt>
      <trkpt lat="43.50284" lon="2.41352">
        <ele>391.4</ele>
        <time>2020-08-25T14:32:13Z</time>
      </trkpt>
      <trkpt lat="43.5021" lon="2.41268">
        <ele>382.4</ele>
        <time>2020-08-25T14:32:23Z</time>
      </trkpt>
      <trkpt lat="43.50108" lon="2.41352">
        <ele>373.4</ele>
        <time>2020-08-25T14:32:38Z</time>
      </trkpt>
      <trkpt lat="43.5015" lon="2.41179">
        <ele>364</ele>
        <time>2020-08-25T14:32:53Z</time>
      </trkpt>
      <trkpt lat="43.50167" lon="2.41053">
        <ele>357.5</ele>
        <time>2020-08-25T14:33:03Z</time>
      </trkpt>
      <trkpt lat="43.50136" lon="2.40906">
        <ele>348.9</ele>
        <time>2020-08-25T14:33:18Z</time>
      </trkpt>
      <trkpt lat="43.50201" lon="2.40787">
        <ele>317.4</ele>
        <time>2020-08-25T14:35:38Z</time>
      </trkpt>
      <trkpt lat="43.50297" lon="2.4076">
        <ele>312.1</ele>
        <time>2020-08-25T14:35:53Z</time>
      </trkpt>
      <trkpt lat="43.50272" lon="2.40637">
        <ele>307.6</ele>
        <time>2020-08-25T14:36:38Z</time>
      </trkpt>
      <trkpt lat="43.5022" lon="2.40505">
        <ele>302.3</ele>
        <time>2020-08-25T14:37:03Z</time>
      </trkpt>
      <trkpt lat="43.50167" lon="2.4038">
        <ele>299.5</ele>
        <time>2020-08-25T14:37:28Z</time>
      </trkpt>
      <trkpt lat="43.50105" lon="2.40265">
        <ele>297.5</ele>
        <time>2020-08-25T14:37:53Z</time>
      </trkpt>
      <trkpt lat="43.50013" lon="2.40219">
        <ele>296.9</ele>
        <time>2020-08-25T14:38:18Z</time>
      </trkpt>
      <trkpt lat="43.49936" lon="2.40118">
        <ele>295.4</ele>
        <time>2020-08-25T14:38:48Z</time>
      </trkpt>
      <trkpt lat="43.49826" lon="2.40062">
        <ele>293.7</ele>
        <time>2020-08-25T14:39:03Z</time>
      </trkpt>
      <trkpt lat="43.49731" lon="2.40003">
        <ele>289.8</ele>
        <time>2020-08-25T14:39:23Z</time>
      </trkpt>
      <trkpt lat="43.49732" lon="2.39876">
        <ele>288.3</ele>
        <time>2020-08-25T14:39:43Z</time>
      </trkpt>
      <trkpt lat="43.49747" lon="2.39751">
        <ele>283.9</ele>
        <time>2020-08-25T14:40:03Z</time>
      </trkpt>
      <trkpt lat="43.49758" lon="2.39626">
        <ele>283.4</ele>
        <time>2020-08-25T14:40:23Z</time>
      </trkpt>
      <trkpt lat="43.49772" lon="2.39487">
        <ele>280.3</ele>
        <time>2020-08-25T14:40:48Z</time>
      </trkpt>
      <trkpt lat="43.49788" lon="2.39353">
        <ele>278.1</ele>
        <time>2020-08-25T14:42:20Z</time>
      </trkpt>
      <trkpt lat="43.49804" lon="2.392">
        <ele>273.1</ele>
        <time>2020-08-25T14:42:45Z</time>
      </trkpt>
      <trkpt lat="43.49817" lon="2.39075">
        <ele>272.6</ele>
        <time>2020-08-25T14:43:05Z</time>
      </trkpt>
      <trkpt lat="43.4983" lon="2.3895">
        <ele>271.6</ele>
        <time>2020-08-25T14:43:25Z</time>
      </trkpt>
      <trkpt lat="43.49844" lon="2.38825">
        <ele>271.1</ele>
        <time>2020-08-25T14:43:45Z</time>
      </trkpt>
      <trkpt lat="43.49897" lon="2.38699">
        <ele>270.3</ele>
        <time>2020-08-25T14:44:10Z</time>
      </trkpt>
      <trkpt lat="43.49974" lon="2.38615">
        <ele>269.8</ele>
        <time>2020-08-25T14:44:35Z</time>
      </trkpt>
      <trkpt lat="43.49895" lon="2.38534">
        <ele>270.9</ele>
        <time>2020-08-25T14:45:10Z</time>
      </trkpt>
      <trkpt lat="43.49826" lon="2.38436">
        <ele>273.3</ele>
        <time>2020-08-25T14:46:04Z</time>
      </trkpt>
      <trkpt lat="43.49762" lon="2.38346">
        <ele>276</ele>
        <time>2020-08-25T14:46:55Z</time>
      </trkpt>
      <trkpt lat="43.49697" lon="2.38257">
        <ele>282.8</ele>
        <time>2020-08-25T14:50:19Z</time>
      </trkpt>
      <trkpt lat="43.49624" lon="2.38155">
        <ele>285.3</ele>
        <time>2020-08-25T14:51:26Z</time>
      </trkpt>
      <trkpt lat="43.49557" lon="2.38059">
        <ele>286.5</ele>
        <time>2020-08-25T14:52:55Z</time>
      </trkpt>
      <trkpt lat="43.49489" lon="2.37972">
        <ele>286.9</ele>
        <time>2020-08-25T14:53:25Z</time>
      </trkpt>
      <trkpt lat="43.49525" lon="2.37839">
        <ele>287.4</ele>
        <time>2020-08-25T14:53:55Z</time>
      </trkpt>
      <trkpt lat="43.49564" lon="2.37725">
        <ele>287.3</ele>
        <time>2020-08-25T14:54:10Z</time>
      </trkpt>
      <trkpt lat="43.49641" lon="2.37635">
        <ele>286.9</ele>
        <time>2020-08-25T14:54:40Z</time>
      </trkpt>
      <trkpt lat="43.49708" lon="2.37533">
        <ele>285.8</ele>
        <time>2020-08-25T14:56:02Z</time>
      </trkpt>
      <trkpt lat="43.49768" lon="2.37433">
        <ele>283.2</ele>
        <time>2020-08-25T14:56:27Z</time>
      </trkpt>
      <trkpt lat="43.49825" lon="2.37335">
        <ele>282.6</ele>
        <time>2020-08-25T14:56:52Z</time>
      </trkpt>
      <trkpt lat="43.49894" lon="2.37221">
        <ele>282.4</ele>
        <time>2020-08-25T14:57:22Z</time>
      </trkpt>
      <trkpt lat="43.49957" lon="2.37119">
        <ele>282.2</ele>
        <time>2020-08-25T14:57:47Z</time>
      </trkpt>
      <trkpt lat="43.49997" lon="2.36994">
        <ele>282.4</ele>
        <time>2020-08-25T14:58:17Z</time>
      </trkpt>
      <trkpt lat="43.49937" lon="2.3689">
        <ele>283</ele>
        <time>2020-08-25T14:58:57Z</time>
      </trkpt>
      <trkpt lat="43.49841" lon="2.36847">
        <ele>284.6</ele>
        <time>2020-08-25T14:59:44Z</time>
      </trkpt>
      <trkpt lat="43.49859" lon="2.36722">
        <ele>286.6</ele>
        <time>2020-08-25T15:00:34Z</time>
      </trkpt>
      <trkpt lat="43.49929" lon="2.36645">
        <ele>287.2</ele>
        <time>2020-08-25T15:00:59Z</time>
      </trkpt>
      <trkpt lat="43.49912" lon="2.36513">
        <ele>287.7</ele>
        <time>2020-08-25T15:02:06Z</time>
      </trkpt>
      <trkpt lat="43.49841" lon="2.3642">
        <ele>289.3</ele>
        <time>2020-08-25T15:03:30Z</time>
      </trkpt>
    </trkseg>
  </trk>
</gpx>